Wetterdaten: Dienstag, 21.07.2015
Datum Zeit Temp. Aussen +5cm Feuchte Auss BlattFeu 1 Luftdruck Regen Sonnenschein Regendauer Solar Windben
21.07.2015 00:00 21,0 C 18,9 C 95 % 1 lf 1012,4 hPa 0,0 l/m 0 min 0 min 0 W/m 16,7 km/h (3 Bft)
21.07.2015 00:02 21,0 C 18,9 C 95 % 1 lf 1012,4 hPa 0,0 l/m 0 min 0 min 0 W/m 20,9 km/h (4 Bft)
21.07.2015 00:05 21,0 C 18,9 C 95 % 1 lf 1012,4 hPa 0,0 l/m 0 min 0 min 0 W/m 20,9 km/h (4 Bft)
21.07.2015 00:07 21,0 C 18,9 C 95 % 1 lf 1012,5 hPa 0,0 l/m 0 min 0 min 0 W/m 20,9 km/h (4 Bft)
21.07.2015 00:10 21,0 C 18,9 C 95 % 1 lf 1012,4 hPa 0,0 l/m 0 min 0 min 0 W/m 12,6 km/h (3 Bft)
21.07.2015 00:12 21,0 C 18,9 C 95 % 1 lf 1012,4 hPa 0,0 l/m 0 min 0 min 0 W/m 16,7 km/h (3 Bft)
21.07.2015 00:14 21,0 C 18,9 C 95 % 1 lf 1012,5 hPa 0,0 l/m 0 min 0 min 0 W/m 12,6 km/h (3 Bft)
21.07.2015 00:16 21,0 C 18,9 C 95 % 1 lf 1012,5 hPa 0,0 l/m 0 min 0 min 0 W/m 12,6 km/h (3 Bft)
21.07.2015 00:18 21,0 C 18,3 C 94 % 1 lf 1012,5 hPa 0,0 l/m 0 min 0 min 0 W/m 14,6 km/h (3 Bft)
21.07.2015 00:20 20,9 C 18,3 C 94 % 1 lf 1012,5 hPa 0,0 l/m 0 min 0 min 0 W/m 14,6 km/h (3 Bft)
21.07.2015 00:22 20,9 C 18,3 C 94 % 1 lf 1012,5 hPa 0,0 l/m 0 min 0 min 0 W/m 16,7 km/h (3 Bft)
21.07.2015 00:24 20,9 C 18,3 C 94 % 1 lf 1012,5 hPa 0,0 l/m 0 min 0 min 0 W/m 16,7 km/h (3 Bft)
21.07.2015 00:26 20,9 C 18,3 C 95 % 1 lf 1012,5 hPa 0,0 l/m 0 min 0 min 0 W/m 10,5 km/h (2 Bft)
21.07.2015 00:28 20,9 C 18,3 C 94 % 1 lf 1012,4 hPa 0,0 l/m 0 min 0 min 0 W/m 12,6 km/h (3 Bft)
21.07.2015 00:30 20,9 C 18,3 C 95 % 1 lf 1012,5 hPa 0,0 l/m 0 min 0 min 0 W/m 14,6 km/h (3 Bft)
21.07.2015 00:32 20,9 C 18,3 C 95 % 2 lf 1012,4 hPa 0,0 l/m 0 min 0 min 0 W/m 10,5 km/h (2 Bft)
21.07.2015 00:34 20,9 C 18,3 C 94 % 2 lf 1012,4 hPa 0,0 l/m 0 min 0 min 0 W/m 12,6 km/h (3 Bft)
21.07.2015 00:36 20,8 C 18,3 C 95 % 2 lf 1012,4 hPa 0,0 l/m 0 min 0 min 0 W/m 12,6 km/h (3 Bft)
21.07.2015 00:38 20,8 C 18,3 C 95 % 2 lf 1012,5 hPa 0,0 l/m 0 min 0 min 0 W/m 10,5 km/h (2 Bft)
21.07.2015 00:40 20,8 C 18,3 C 95 % 2 lf 1012,4 hPa 0,0 l/m 0 min 0 min 0 W/m 10,5 km/h (2 Bft)
21.07.2015 00:42 20,8 C 18,3 C 95 % 2 lf 1012,4 hPa 0,0 l/m 0 min 0 min 0 W/m 10,5 km/h (2 Bft)
21.07.2015 00:44 20,8 C 18,3 C 95 % 1 lf 1012,4 hPa 0,0 l/m 0 min 0 min 0 W/m 10,5 km/h (2 Bft)
21.07.2015 00:46 20,8 C 18,3 C 95 % 1 lf 1012,4 hPa 0,0 l/m 0 min 0 min 0 W/m 12,6 km/h (3 Bft)
21.07.2015 00:48 20,8 C 18,3 C 95 % 2 lf 1012,4 hPa 0,0 l/m 0 min 0 min 0 W/m 10,5 km/h (2 Bft)
21.07.2015 00:50 20,8 C 18,3 C 95 % 1 lf 1012,4 hPa 0,0 l/m 0 min 0 min 0 W/m 8,4 km/h (2 Bft)
21.07.2015 00:52 20,8 C 18,3 C 95 % 2 lf 1012,4 hPa 0,0 l/m 0 min 0 min 0 W/m 10,5 km/h (2 Bft)
21.07.2015 00:54 20,7 C 18,3 C 95 % 2 lf 1012,4 hPa 0,0 l/m 0 min 0 min 0 W/m 12,6 km/h (3 Bft)
21.07.2015 00:56 20,7 C 18,3 C 95 % 2 lf 1012,4 hPa 0,0 l/m 0 min 0 min 0 W/m 6,3 km/h (2 Bft)
21.07.2015 00:58 20,7 C 18,3 C 95 % 2 lf 1012,4 hPa 0,0 l/m 0 min 0 min 0 W/m 8,4 km/h (2 Bft)
21.07.2015 01:00 20,7 C 18,3 C 95 % 2 lf 1012,4 hPa 0,0 l/m 0 min 0 min 0 W/m 6,3 km/h (2 Bft)
21.07.2015 01:02 20,7 C 18,3 C 95 % 2 lf 1012,4 hPa 0,0 l/m 0 min 0 min 0 W/m 6,3 km/h (2 Bft)
21.07.2015 01:04 20,7 C 18,3 C 95 % 2 lf 1012,4 hPa 0,0 l/m 0 min 0 min 0 W/m 14,6 km/h (3 Bft)
21.07.2015 01:06 20,7 C 18,3 C 95 % 1 lf 1012,4 hPa 0,0 l/m 0 min 0 min 0 W/m 10,5 km/h (2 Bft)
21.07.2015 01:08 20,6 C 18,3 C 95 % 1 lf 1012,4 hPa 0,0 l/m 0 min 0 min 0 W/m 10,5 km/h (2 Bft)
21.07.2015 01:10 20,6 C 18,3 C 95 % 2 lf 1012,4 hPa 0,0 l/m 0 min 0 min 0 W/m 8,4 km/h (2 Bft)
21.07.2015 01:12 20,6 C 18,3 C 95 % 2 lf 1012,4 hPa 0,0 l/m 0 min 0 min 0 W/m 6,3 km/h (2 Bft)
21.07.2015 01:14 20,6 C 18,3 C 95 % 2 lf 1012,4 hPa 0,0 l/m 0 min 0 min 0 W/m 8,4 km/h (2 Bft)
21.07.2015 01:16 20,6 C 18,3 C 95 % 2 lf 1012,4 hPa 0,0 l/m 0 min 0 min 0 W/m 6,3 km/h (2 Bft)
21.07.2015 01:18 20,6 C 18,3 C 95 % 2 lf 1012,4 hPa 0,0 l/m 0 min 0 min 0 W/m 6,3 km/h (2 Bft)
21.07.2015 01:20 20,6 C 18,3 C 95 % 2 lf 1012,4 hPa 0,0 l/m 0 min 0 min 0 W/m 10,5 km/h (2 Bft)
21.07.2015 01:22 20,6 C 18,3 C 95 % 2 lf 1012,4 hPa 0,0 l/m 0 min 0 min 0 W/m 12,6 km/h (3 Bft)
21.07.2015 01:24 20,5 C 18,3 C 95 % 2 lf 1012,4 hPa 0,0 l/m 0 min 0 min 0 W/m 4,2 km/h (1 Bft)
21.07.2015 01:26 20,5 C 18,3 C 95 % 2 lf 1012,4 hPa 0,0 l/m 0 min 0 min 0 W/m 6,3 km/h (2 Bft)
21.07.2015 01:28 20,5 C 18,3 C 95 % 2 lf 1012,4 hPa 0,0 l/m 0 min 0 min 0 W/m 8,4 km/h (2 Bft)
21.07.2015 01:30 20,5 C 18,3 C 95 % 2 lf 1012,4 hPa 0,0 l/m 0 min 0 min 0 W/m 8,4 km/h (2 Bft)
21.07.2015 01:32 20,5 C 18,3 C 95 % 2 lf 1012,4 hPa 0,0 l/m 0 min 0 min 0 W/m 6,3 km/h (2 Bft)
21.07.2015 01:34 20,5 C 18,3 C 95 % 2 lf 1012,4 hPa 0,0 l/m 0 min 0 min 0 W/m 6,3 km/h (2 Bft)
21.07.2015 01:36 20,4 C 18,3 C 95 % 2 lf 1012,4 hPa 0,0 l/m 0 min 0 min 0 W/m 6,3 km/h (2 Bft)
21.07.2015 01:38 20,4 C 18,3 C 95 % 2 lf 1012,4 hPa 0,0 l/m 0 min 0 min 0 W/m 8,4 km/h (2 Bft)
21.07.2015 01:40 20,4 C 18,3 C 95 % 2 lf 1012,4 hPa 0,0 l/m 0 min 0 min 0 W/m 6,3 km/h (2 Bft)
21.07.2015 01:42 20,4 C 18,3 C 95 % 2 lf 1012,4 hPa 0,0 l/m 0 min 0 min 0 W/m 6,3 km/h (2 Bft)
21.07.2015 01:44 20,4 C 18,3 C 95 % 2 lf 1012,4 hPa 0,0 l/m 0 min 0 min 0 W/m 6,3 km/h (2 Bft)
21.07.2015 01:46 20,4 C 18,3 C 95 % 2 lf 1012,4 hPa 0,0 l/m 0 min 0 min 0 W/m 6,3 km/h (2 Bft)
21.07.2015 01:48 20,4 C 18,3 C 95 % 2 lf 1012,4 hPa 0,0 l/m 0 min 0 min 0 W/m 8,4 km/h (2 Bft)
21.07.2015 01:50 20,4 C 18,3 C 95 % 2 lf 1012,3 hPa 0,0 l/m 0 min 0 min 0 W/m 8,4 km/h (2 Bft)
21.07.2015 01:52 20,4 C 18,3 C 95 % 2 lf 1012,3 hPa 0,0 l/m 0 min 0 min 0 W/m 8,4 km/h (2 Bft)
21.07.2015 01:54 20,4 C 18,3 C 95 % 2 lf 1012,3 hPa 0,0 l/m 0 min 0 min 0 W/m 6,3 km/h (2 Bft)
21.07.2015 01:56 20,4 C 18,3 C 95 % 2 lf 1012,3 hPa 0,0 l/m 0 min 0 min 0 W/m 4,2 km/h (1 Bft)
21.07.2015 01:58 20,4 C 18,3 C 95 % 2 lf 1012,3 hPa 0,0 l/m 0 min 0 min 0 W/m 8,4 km/h (2 Bft)
21.07.2015 02:00 20,4 C 18,3 C 95 % 2 lf 1012,2 hPa 0,0 l/m 0 min 0 min 0 W/m 10,5 km/h (2 Bft)
21.07.2015 02:02 20,4 C 18,3 C 95 % 2 lf 1012,2 hPa 0,0 l/m 0 min 0 min 0 W/m 6,3 km/h (2 Bft)
21.07.2015 02:04 20,4 C 18,3 C 95 % 2 lf 1012,2 hPa 0,0 l/m 0 min 0 min 0 W/m 6,3 km/h (2 Bft)
21.07.2015 02:06 20,4 C 18,9 C 96 % 2 lf 1012,1 hPa 0,0 l/m 0 min 0 min 0 W/m 8,4 km/h (2 Bft)
21.07.2015 02:08 20,4 C 18,3 C 96 % 2 lf 1012,2 hPa 0,0 l/m 0 min 0 min 0 W/m 8,4 km/h (2 Bft)
21.07.2015 02:10 20,4 C 18,3 C 96 % 2 lf 1012,1 hPa 0,0 l/m 0 min 0 min 0 W/m 4,2 km/h (1 Bft)
21.07.2015 02:12 20,4 C 18,3 C 96 % 2 lf 1012,1 hPa 0,0 l/m 0 min 0 min 0 W/m 6,3 km/h (2 Bft)
21.07.2015 02:14 20,4 C 18,3 C 96 % 2 lf 1012,1 hPa 0,0 l/m 0 min 0 min 0 W/m 6,3 km/h (2 Bft)
21.07.2015 02:16 20,3 C 18,3 C 96 % 1 lf 1012,0 hPa 0,0 l/m 0 min 0 min 0 W/m 6,3 km/h (2 Bft)
21.07.2015 02:18 20,3 C 18,3 C 96 % 2 lf 1012,0 hPa 0,0 l/m 0 min 0 min 0 W/m 4,2 km/h (1 Bft)
21.07.2015 02:20 20,3 C 18,3 C 96 % 2 lf 1012,1 hPa 0,0 l/m 0 min 0 min 0 W/m 6,3 km/h (2 Bft)
21.07.2015 02:22 20,3 C 18,3 C 96 % 2 lf 1012,1 hPa 0,0 l/m 0 min 0 min 0 W/m 6,3 km/h (2 Bft)
21.07.2015 02:24 20,3 C 18,3 C 96 % 2 lf 1012,0 hPa 0,0 l/m 0 min 0 min 0 W/m 6,3 km/h (2 Bft)
21.07.2015 02:26 20,3 C 18,3 C 96 % 2 lf 1012,0 hPa 0,0 l/m 0 min 0 min 0 W/m 6,3 km/h (2 Bft)
21.07.2015 02:28 20,3 C 18,3 C 96 % 2 lf 1012,0 hPa 0,0 l/m 0 min 0 min 0 W/m 10,5 km/h (2 Bft)
21.07.2015 02:30 20,3 C 18,3 C 96 % 2 lf 1012,0 hPa 0,0 l/m 0 min 0 min 0 W/m 8,4 km/h (2 Bft)
21.07.2015 02:32 20,3 C 18,3 C 96 % 2 lf 1012,0 hPa 0,0 l/m 0 min 0 min 0 W/m 10,5 km/h (2 Bft)
21.07.2015 02:34 20,3 C 18,3 C 96 % 2 lf 1012,0 hPa 0,0 l/m 0 min 0 min 0 W/m 8,4 km/h (2 Bft)
21.07.2015 02:36 20,3 C 18,3 C 96 % 2 lf 1012,0 hPa 0,0 l/m 0 min 0 min 0 W/m 8,4 km/h (2 Bft)
21.07.2015 02:38 20,3 C 18,3 C 96 % 3 lf 1012,0 hPa 0,0 l/m 0 min 0 min 0 W/m 6,3 km/h (2 Bft)
21.07.2015 02:40 20,3 C 18,3 C 96 % 3 lf 1012,0 hPa 0,0 l/m 0 min 0 min 0 W/m 8,4 km/h (2 Bft)
21.07.2015 02:42 20,2 C 18,3 C 96 % 3 lf 1012,0 hPa 0,0 l/m 0 min 0 min 0 W/m 8,4 km/h (2 Bft)
21.07.2015 02:44 20,2 C 18,3 C 96 % 3 lf 1012,0 hPa 0,0 l/m 0 min 0 min 0 W/m 8,4 km/h (2 Bft)
21.07.2015 02:46 20,2 C 18,3 C 96 % 3 lf 1012,0 hPa 0,0 l/m 0 min 0 min 0 W/m 6,3 km/h (2 Bft)
21.07.2015 02:48 20,2 C 17,8 C 96 % 3 lf 1011,9 hPa 0,0 l/m 0 min 0 min 0 W/m 6,3 km/h (2 Bft)
21.07.2015 02:50 20,2 C 17,8 C 96 % 3 lf 1011,9 hPa 0,0 l/m 0 min 0 min 0 W/m 6,3 km/h (2 Bft)
21.07.2015 02:52 20,2 C 17,8 C 96 % 3 lf 1011,8 hPa 0,0 l/m 0 min 0 min 0 W/m 8,4 km/h (2 Bft)
21.07.2015 02:54 20,2 C 17,8 C 96 % 3 lf 1011,8 hPa 0,0 l/m 0 min 0 min 0 W/m 8,4 km/h (2 Bft)
21.07.2015 02:56 20,1 C 17,8 C 96 % 3 lf 1011,8 hPa 0,0 l/m 0 min 0 min 0 W/m 6,3 km/h (2 Bft)
21.07.2015 02:58 20,1 C 17,8 C 96 % 3 lf 1011,7 hPa 0,0 l/m 0 min 0 min 0 W/m 8,4 km/h (2 Bft)
21.07.2015 03:00 20,1 C 17,8 C 96 % 3 lf 1011,6 hPa 0,0 l/m 0 min 0 min 0 W/m 8,4 km/h (2 Bft)
21.07.2015 03:02 20,1 C 17,8 C 96 % 4 lf 1011,7 hPa 0,0 l/m 0 min 0 min 0 W/m 10,5 km/h (2 Bft)
21.07.2015 03:04 20,1 C 17,8 C 96 % 4 lf 1011,7 hPa 0,0 l/m 0 min 0 min 0 W/m 6,3 km/h (2 Bft)
21.07.2015 03:06 20,1 C 17,8 C 96 % 4 lf 1011,7 hPa 0,0 l/m 0 min 0 min 0 W/m 8,4 km/h (2 Bft)
21.07.2015 03:08 20,0 C 17,8 C 96 % 4 lf 1011,8 hPa 0,0 l/m 0 min 0 min 0 W/m 6,3 km/h (2 Bft)
21.07.2015 03:10 20,0 C 17,8 C 96 % 4 lf 1011,7 hPa 0,0 l/m 0 min 0 min 0 W/m 6,3 km/h (2 Bft)
21.07.2015 03:12 19,9 C 17,8 C 96 % 4 lf 1011,6 hPa 0,0 l/m 0 min 0 min 0 W/m 4,2 km/h (1 Bft)
21.07.2015 03:14 19,9 C 17,8 C 96 % 5 lf 1011,6 hPa 0,0 l/m 0 min 0 min 0 W/m 4,2 km/h (1 Bft)
21.07.2015 03:16 19,9 C 17,8 C 96 % 5 lf 1011,6 hPa 0,0 l/m 0 min 0 min 0 W/m 6,3 km/h (2 Bft)
21.07.2015 03:18 19,9 C 17,8 C 96 % 6 lf 1011,7 hPa 0,0 l/m 0 min 0 min 0 W/m 4,2 km/h (1 Bft)
21.07.2015 03:20 19,9 C 17,8 C 96 % 6 lf 1011,6 hPa 0,0 l/m 0 min 0 min 0 W/m 8,4 km/h (2 Bft)
21.07.2015 03:22 19,9 C 17,8 C 96 % 7 lf 1011,6 hPa 0,0 l/m 0 min 0 min 0 W/m 6,3 km/h (2 Bft)
21.07.2015 03:24 19,8 C 17,8 C 96 % 7 lf 1011,6 hPa 0,0 l/m 0 min 0 min 0 W/m 8,4 km/h (2 Bft)
21.07.2015 03:26 19,8 C 17,8 C 96 % 7 lf 1011,6 hPa 0,0 l/m 0 min 0 min 0 W/m 8,4 km/h (2 Bft)
21.07.2015 03:28 19,8 C 17,8 C 96 % 7 lf 1011,6 hPa 0,0 l/m 0 min 0 min 0 W/m 6,3 km/h (2 Bft)
21.07.2015 03:30 19,8 C 17,8 C 96 % 7 lf 1011,6 hPa 0,0 l/m 0 min 0 min 0 W/m 8,4 km/h (2 Bft)
21.07.2015 03:32 19,8 C 17,8 C 96 % 7 lf 1011,6 hPa 0,0 l/m 0 min 0 min 0 W/m 6,3 km/h (2 Bft)
21.07.2015 03:34 19,7 C 17,8 C 96 % 8 lf 1011,6 hPa 0,0 l/m 0 min 0 min 0 W/m 6,3 km/h (2 Bft)
21.07.2015 03:36 19,7 C 17,8 C 96 % 9 lf 1011,5 hPa 0,0 l/m 0 min 0 min 0 W/m 8,4 km/h (2 Bft)
21.07.2015 03:38 19,7 C 17,8 C 96 % 9 lf 1011,6 hPa 0,0 l/m 0 min 0 min 0 W/m 8,4 km/h (2 Bft)
21.07.2015 03:40 19,7 C 17,8 C 96 % 9 lf 1011,6 hPa 0,0 l/m 0 min 0 min 0 W/m 6,3 km/h (2 Bft)
21.07.2015 03:42 19,7 C 17,8 C 96 % 9 lf 1011,6 hPa 0,0 l/m 0 min 0 min 0 W/m 6,3 km/h (2 Bft)
21.07.2015 03:44 19,7 C 17,8 C 96 % 10 lf 1011,6 hPa 0,0 l/m 0 min 0 min 0 W/m 2,1 km/h (1 Bft)
21.07.2015 03:46 19,6 C 17,8 C 96 % 10 lf 1011,6 hPa 0,0 l/m 0 min 0 min 0 W/m 6,3 km/h (2 Bft)
21.07.2015 03:48 19,6 C 17,8 C 96 % 10 lf 1011,6 hPa 0,0 l/m 0 min 0 min 0 W/m 6,3 km/h (2 Bft)
21.07.2015 03:50 19,6 C 17,8 C 96 % 10 lf 1011,6 hPa 0,0 l/m 0 min 0 min 0 W/m 6,3 km/h (2 Bft)
21.07.2015 03:52 19,6 C 17,8 C 96 % 10 lf 1011,6 hPa 0,0 l/m 0 min 0 min 0 W/m 4,2 km/h (1 Bft)
21.07.2015 03:54 19,6 C 17,8 C 96 % 10 lf 1011,6 hPa 0,0 l/m 0 min 0 min 0 W/m 6,3 km/h (2 Bft)
21.07.2015 03:56 19,6 C 17,8 C 96 % 9 lf 1011,6 hPa 0,0 l/m 0 min 0 min 0 W/m 4,2 km/h (1 Bft)
21.07.2015 03:58 19,5 C 17,8 C 96 % 8 lf 1011,6 hPa 0,0 l/m 0 min 0 min 0 W/m 6,3 km/h (2 Bft)
21.07.2015 04:00 19,5 C 17,8 C 96 % 8 lf 1011,6 hPa 0,0 l/m 0 min 0 min 0 W/m 6,3 km/h (2 Bft)
21.07.2015 04:05 19,4 C 17,8 C 96 % 8 lf 1011,5 hPa 0,0 l/m 0 min 0 min 0 W/m 6,3 km/h (2 Bft)
21.07.2015 04:06 19,5 C 17,8 C 96 % 8 lf 1011,5 hPa 0,0 l/m 0 min 0 min 0 W/m 6,3 km/h (2 Bft)
21.07.2015 04:08 19,5 C 17,8 C 96 % 4 lf 1011,5 hPa 0,0 l/m 0 min 0 min 0 W/m 6,3 km/h (2 Bft)
21.07.2015 04:10 19,5 C 17,8 C 96 % 4 lf 1011,5 hPa 0,0 l/m 0 min 0 min 0 W/m 4,2 km/h (1 Bft)
21.07.2015 04:12 19,4 C 17,8 C 96 % 4 lf 1011,5 hPa 0,0 l/m 0 min 0 min 0 W/m 6,3 km/h (2 Bft)
21.07.2015 04:14 19,4 C 17,8 C 96 % 4 lf 1011,4 hPa 0,0 l/m 0 min 0 min 0 W/m 4,2 km/h (1 Bft)
21.07.2015 04:16 19,5 C 17,8 C 96 % 3 lf 1011,3 hPa 0,0 l/m 0 min 0 min 0 W/m 6,3 km/h (2 Bft)
21.07.2015 04:18 19,4 C 17,8 C 96 % 3 lf 1011,3 hPa 0,0 l/m 0 min 0 min 0 W/m 6,3 km/h (2 Bft)
21.07.2015 04:20 19,5 C 17,8 C 96 % 3 lf 1011,3 hPa 0,0 l/m 0 min 0 min 0 W/m 4,2 km/h (1 Bft)
21.07.2015 04:22 19,4 C 17,8 C 96 % 3 lf 1011,3 hPa 0,0 l/m 0 min 0 min 0 W/m 6,3 km/h (2 Bft)
21.07.2015 04:24 19,4 C 17,8 C 96 % 3 lf 1011,5 hPa 0,0 l/m 0 min 0 min 0 W/m 6,3 km/h (2 Bft)
21.07.2015 04:26 19,4 C 17,8 C 96 % 3 lf 1011,4 hPa 0,0 l/m 0 min 0 min 0 W/m 4,2 km/h (1 Bft)
21.07.2015 04:28 19,4 C 17,8 C 96 % 3 lf 1011,4 hPa 0,0 l/m 0 min 0 min 0 W/m 6,3 km/h (2 Bft)
21.07.2015 04:30 19,4 C 17,8 C 97 % 3 lf 1011,4 hPa 0,0 l/m 0 min 0 min 0 W/m 6,3 km/h (2 Bft)
21.07.2015 04:32 19,4 C 17,8 C 97 % 3 lf 1011,4 hPa 0,0 l/m 0 min 0 min 0 W/m 6,3 km/h (2 Bft)
21.07.2015 04:34 19,4 C 17,8 C 97 % 3 lf 1011,5 hPa 0,0 l/m 0 min 0 min 0 W/m 6,3 km/h (2 Bft)
21.07.2015 04:36 19,4 C 17,8 C 97 % 3 lf 1011,5 hPa 0,0 l/m 0 min 0 min 0 W/m 4,2 km/h (1 Bft)
21.07.2015 04:38 19,4 C 17,8 C 97 % 3 lf 1011,5 hPa 0,0 l/m 0 min 0 min 0 W/m 4,2 km/h (1 Bft)
21.07.2015 04:40 19,4 C 17,8 C 97 % 3 lf 1011,5 hPa 0,0 l/m 0 min 0 min 0 W/m 8,4 km/h (2 Bft)
21.07.2015 04:42 19,4 C 17,8 C 97 % 2 lf 1011,5 hPa 0,0 l/m 0 min 0 min 0 W/m 6,3 km/h (2 Bft)
21.07.2015 04:44 19,4 C 17,8 C 97 % 2 lf 1011,5 hPa 0,0 l/m 0 min 0 min 0 W/m 10,5 km/h (2 Bft)
21.07.2015 04:46 19,4 C 17,8 C 97 % 2 lf 1011,5 hPa 0,0 l/m 0 min 0 min 0 W/m 10,5 km/h (2 Bft)
21.07.2015 04:48 19,4 C 17,8 C 97 % 2 lf 1011,5 hPa 0,0 l/m 0 min 0 min 0 W/m 6,3 km/h (2 Bft)
21.07.2015 04:50 19,4 C 17,8 C 97 % 2 lf 1011,4 hPa 0,0 l/m 0 min 0 min 0 W/m 4,2 km/h (1 Bft)
21.07.2015 04:52 19,4 C 18,3 C 97 % 2 lf 1011,5 hPa 0,0 l/m 0 min 0 min 0 W/m 8,4 km/h (2 Bft)
21.07.2015 04:54 19,4 C 18,3 C 97 % 2 lf 1011,5 hPa 0,0 l/m 0 min 0 min 0 W/m 10,5 km/h (2 Bft)
21.07.2015 04:56 19,4 C 18,3 C 97 % 2 lf 1011,5 hPa 0,0 l/m 0 min 0 min 0 W/m 12,6 km/h (3 Bft)
21.07.2015 04:58 19,5 C 18,3 C 97 % 2 lf 1011,4 hPa 0,0 l/m 0 min 0 min 0 W/m 8,4 km/h (2 Bft)
21.07.2015 05:00 19,5 C 18,3 C 97 % 2 lf 1011,5 hPa 0,0 l/m 0 min 0 min 0 W/m 8,4 km/h (2 Bft)
21.07.2015 05:02 19,5 C 18,3 C 97 % 1 lf 1011,5 hPa 0,0 l/m 0 min 0 min 0 W/m 10,5 km/h (2 Bft)
21.07.2015 05:04 19,5 C 18,3 C 97 % 1 lf 1011,5 hPa 0,0 l/m 0 min 0 min 0 W/m 12,6 km/h (3 Bft)
21.07.2015 05:06 19,5 C 18,3 C 97 % 1 lf 1011,5 hPa 0,0 l/m 0 min 0 min 0 W/m 18,8 km/h (3 Bft)
21.07.2015 05:08 19,5 C 18,3 C 97 % 1 lf 1011,5 hPa 0,0 l/m 0 min 0 min 0 W/m 16,7 km/h (3 Bft)
21.07.2015 05:10 19,5 C 18,3 C 97 % 1 lf 1011,5 hPa 0,0 l/m 0 min 0 min 0 W/m 14,6 km/h (3 Bft)
21.07.2015 05:12 19,5 C 18,3 C 97 % 1 lf 1011,5 hPa 0,0 l/m 0 min 0 min 0 W/m 10,5 km/h (2 Bft)
21.07.2015 05:14 19,6 C 18,3 C 97 % 1 lf 1011,5 hPa 0,0 l/m 0 min 0 min 0 W/m 10,5 km/h (2 Bft)
21.07.2015 05:16 19,6 C 18,3 C 97 % 1 lf 1011,5 hPa 0,0 l/m 0 min 0 min 0 W/m 8,4 km/h (2 Bft)
21.07.2015 05:18 19,6 C 18,3 C 97 % 1 lf 1011,4 hPa 0,0 l/m 0 min 0 min 0 W/m 10,5 km/h (2 Bft)
21.07.2015 05:20 19,6 C 18,3 C 97 % 1 lf 1011,4 hPa 0,0 l/m 0 min 0 min 0 W/m 12,6 km/h (3 Bft)
21.07.2015 05:22 19,6 C 18,3 C 97 % 1 lf 1011,4 hPa 0,0 l/m 0 min 0 min 0 W/m 12,6 km/h (3 Bft)
21.07.2015 05:24 19,6 C 18,3 C 97 % 1 lf 1011,4 hPa 0,0 l/m 0 min 0 min 0 W/m 10,5 km/h (2 Bft)
21.07.2015 05:26 19,6 C 18,3 C 97 % 1 lf 1011,5 hPa 0,0 l/m 0 min 0 min 0 W/m 18,8 km/h (3 Bft)
21.07.2015 05:28 19,6 C 18,3 C 97 % 1 lf 1011,5 hPa 0,0 l/m 0 min 0 min 0 W/m 10,5 km/h (2 Bft)
21.07.2015 05:30 19,6 C 18,3 C 97 % 1 lf 1011,5 hPa 0,0 l/m 0 min 0 min 0 W/m 23,0 km/h (4 Bft)
21.07.2015 05:32 19,6 C 18,3 C 97 % 1 lf 1011,5 hPa 0,0 l/m 0 min 0 min 0 W/m 12,6 km/h (3 Bft)
21.07.2015 05:34 19,6 C 18,3 C 97 % 1 lf 1011,5 hPa 0,0 l/m 0 min 0 min 0 W/m 14,6 km/h (3 Bft)
21.07.2015 05:36 19,6 C 18,3 C 97 % 1 lf 1011,4 hPa 0,0 l/m 0 min 0 min 0 W/m 16,7 km/h (3 Bft)
21.07.2015 05:38 19,7 C 18,3 C 97 % 1 lf 1011,5 hPa 0,0 l/m 0 min 0 min 0 W/m 12,6 km/h (3 Bft)
21.07.2015 05:40 19,7 C 18,3 C 97 % 1 lf 1011,4 hPa 0,0 l/m 0 min 0 min 2 W/m 14,6 km/h (3 Bft)
21.07.2015 05:42 19,7 C 18,3 C 97 % 1 lf 1011,5 hPa 0,0 l/m 0 min 0 min 5 W/m 14,6 km/h (3 Bft)
21.07.2015 05:44 19,7 C 18,3 C 97 % 1 lf 1011,5 hPa 0,0 l/m 0 min 0 min 5 W/m 14,6 km/h (3 Bft)
21.07.2015 05:46 19,7 C 18,3 C 97 % 1 lf 1011,5 hPa 0,0 l/m 0 min 0 min 5 W/m 12,6 km/h (3 Bft)
21.07.2015 05:48 19,7 C 18,3 C 97 % 1 lf 1011,5 hPa 0,0 l/m 0 min 0 min 5 W/m 12,6 km/h (3 Bft)
21.07.2015 05:50 19,7 C 18,3 C 97 % 1 lf 1011,5 hPa 0,0 l/m 0 min 0 min 7 W/m 6,3 km/h (2 Bft)
21.07.2015 05:52 19,7 C 18,3 C 97 % 1 lf 1011,5 hPa 0,0 l/m 0 min 0 min 7 W/m 12,6 km/h (3 Bft)
21.07.2015 05:54 19,7 C 18,3 C 97 % 1 lf 1011,6 hPa 0,0 l/m 0 min 0 min 7 W/m 18,8 km/h (3 Bft)
21.07.2015 05:56 19,8 C 18,3 C 97 % 1 lf 1011,6 hPa 0,0 l/m 0 min 0 min 9 W/m 23,0 km/h (4 Bft)
21.07.2015 05:58 19,8 C 18,3 C 97 % 1 lf 1011,5 hPa 0,0 l/m 0 min 0 min 9 W/m 14,6 km/h (3 Bft)
21.07.2015 06:00 19,8 C 18,3 C 97 % 1 lf 1011,6 hPa 0,0 l/m 0 min 0 min 10 W/m 14,6 km/h (3 Bft)
21.07.2015 06:02 19,8 C 18,3 C 97 % 1 lf 1011,6 hPa 0,0 l/m 0 min 0 min 11 W/m 12,6 km/h (3 Bft)
21.07.2015 06:05 19,8 C 18,3 C 97 % 1 lf 1011,6 hPa 0,0 l/m 0 min 0 min 12 W/m 14,6 km/h (3 Bft)
21.07.2015 06:08 19,8 C 18,3 C 97 % 1 lf 1011,7 hPa 0,0 l/m 0 min 0 min 11 W/m 14,6 km/h (3 Bft)
21.07.2015 06:10 19,8 C 18,3 C 96 % 1 lf 1011,7 hPa 0,0 l/m 0 min 0 min 12 W/m 14,6 km/h (3 Bft)
21.07.2015 06:12 19,9 C 18,9 C 96 % 0 lf 1011,7 hPa 0,0 l/m 0 min 0 min 14 W/m 18,8 km/h (3 Bft)
21.07.2015 06:14 19,9 C 18,3 C 96 % 1 lf 1011,7 hPa 0,0 l/m 0 min 0 min 14 W/m 10,5 km/h (2 Bft)
21.07.2015 06:16 19,9 C 18,3 C 97 % 1 lf 1011,7 hPa 0,0 l/m 0 min 0 min 15 W/m 16,7 km/h (3 Bft)
21.07.2015 06:18 19,9 C 18,9 C 96 % 0 lf 1011,7 hPa 0,0 l/m 0 min 0 min 19 W/m 18,8 km/h (3 Bft)
21.07.2015 06:20 19,9 C 18,9 C 96 % 0 lf 1011,6 hPa 0,0 l/m 0 min 0 min 26 W/m 18,8 km/h (3 Bft)
21.07.2015 06:22 19,9 C 18,9 C 96 % 0 lf 1011,7 hPa 0,0 l/m 0 min 0 min 26 W/m 18,8 km/h (3 Bft)
21.07.2015 06:24 19,9 C 18,9 C 96 % 0 lf 1011,7 hPa 0,0 l/m 0 min 0 min 26 W/m 16,7 km/h (3 Bft)
21.07.2015 06:26 20,0 C 18,9 C 96 % 0 lf 1011,7 hPa 0,0 l/m 0 min 0 min 26 W/m 18,8 km/h (3 Bft)
21.07.2015 06:28 20,0 C 18,9 C 96 % 0 lf 1011,7 hPa 0,0 l/m 0 min 0 min 26 W/m 20,9 km/h (4 Bft)
21.07.2015 06:30 20,0 C 18,9 C 96 % 0 lf 1011,8 hPa 0,0 l/m 0 min 0 min 26 W/m 16,7 km/h (3 Bft)
21.07.2015 06:32 20,1 C 18,9 C 96 % 0 lf 1011,8 hPa 0,0 l/m 0 min 0 min 28 W/m 23,0 km/h (4 Bft)
21.07.2015 06:34 20,1 C 18,9 C 96 % 0 lf 1011,8 hPa 0,0 l/m 0 min 0 min 30 W/m 10,5 km/h (2 Bft)
21.07.2015 06:36 20,1 C 18,9 C 96 % 0 lf 1011,8 hPa 0,0 l/m 0 min 0 min 25 W/m 10,5 km/h (2 Bft)
21.07.2015 06:38 20,1 C 18,9 C 95 % 0 lf 1011,8 hPa 0,0 l/m 0 min 0 min 22 W/m 16,7 km/h (3 Bft)
21.07.2015 06:40 20,2 C 18,9 C 95 % 0 lf 1011,9 hPa 0,0 l/m 0 min 0 min 24 W/m 16,7 km/h (3 Bft)
21.07.2015 06:42 20,2 C 18,9 C 95 % 0 lf 1011,8 hPa 0,0 l/m 0 min 0 min 28 W/m 12,6 km/h (3 Bft)
21.07.2015 06:44 20,2 C 18,9 C 95 % 0 lf 1011,8 hPa 0,0 l/m 0 min 0 min 35 W/m 18,8 km/h (3 Bft)
21.07.2015 06:46 20,2 C 18,9 C 95 % 0 lf 1011,8 hPa 0,0 l/m 0 min 0 min 42 W/m 18,8 km/h (3 Bft)
21.07.2015 06:48 20,2 C 18,9 C 95 % 0 lf 1011,9 hPa 0,0 l/m 0 min 0 min 40 W/m 14,6 km/h (3 Bft)
21.07.2015 06:50 20,2 C 18,9 C 95 % 0 lf 1011,9 hPa 0,0 l/m 0 min 0 min 41 W/m 14,6 km/h (3 Bft)
21.07.2015 06:52 20,2 C 18,9 C 95 % 0 lf 1011,9 hPa 0,0 l/m 0 min 0 min 40 W/m 16,7 km/h (3 Bft)
21.07.2015 06:54 20,3 C 18,9 C 95 % 0 lf 1011,9 hPa 0,0 l/m 0 min 0 min 46 W/m 10,5 km/h (2 Bft)
21.07.2015 06:56 20,3 C 18,9 C 95 % 0 lf 1011,9 hPa 0,0 l/m 0 min 0 min 52 W/m 18,8 km/h (3 Bft)
21.07.2015 06:58 20,3 C 18,9 C 95 % 0 lf 1011,9 hPa 0,0 l/m 0 min 0 min 53 W/m 16,7 km/h (3 Bft)
21.07.2015 07:00 20,3 C 18,9 C 95 % 0 lf 1012,0 hPa 0,0 l/m 0 min 0 min 60 W/m 14,6 km/h (3 Bft)
21.07.2015 07:02 20,3 C 18,9 C 95 % 0 lf 1012,1 hPa 0,0 l/m 0 min 0 min 71 W/m 12,6 km/h (3 Bft)
21.07.2015 07:04 20,4 C 19,4 C 95 % 0 lf 1012,1 hPa 0,0 l/m 0 min 0 min 74 W/m 14,6 km/h (3 Bft)
21.07.2015 07:06 20,4 C 19,4 C 95 % 0 lf 1012,0 hPa 0,0 l/m 0 min 0 min 64 W/m 14,6 km/h (3 Bft)
21.07.2015 07:08 20,4 C 19,4 C 94 % 0 lf 1012,1 hPa 0,0 l/m 0 min 0 min 66 W/m 12,6 km/h (3 Bft)
21.07.2015 07:10 20,4 C 19,4 C 94 % 0 lf 1012,0 hPa 0,0 l/m 0 min 0 min 76 W/m 16,7 km/h (3 Bft)
21.07.2015 07:12 20,5 C 19,4 C 94 % 0 lf 1012,1 hPa 0,0 l/m 0 min 0 min 77 W/m 14,6 km/h (3 Bft)
21.07.2015 07:14 20,5 C 19,4 C 94 % 0 lf 1012,0 hPa 0,0 l/m 0 min 0 min 68 W/m 14,6 km/h (3 Bft)
21.07.2015 07:16 20,5 C 19,4 C 94 % 0 lf 1012,1 hPa 0,0 l/m 0 min 0 min 61 W/m 14,6 km/h (3 Bft)
21.07.2015 07:18 20,6 C 19,4 C 94 % 0 lf 1012,1 hPa 0,0 l/m 0 min 0 min 52 W/m 14,6 km/h (3 Bft)
21.07.2015 07:20 20,6 C 19,4 C 94 % 0 lf 1012,2 hPa 0,0 l/m 0 min 0 min 43 W/m 12,6 km/h (3 Bft)
21.07.2015 07:22 20,6 C 19,4 C 94 % 0 lf 1012,2 hPa 0,0 l/m 0 min 0 min 43 W/m 14,6 km/h (3 Bft)
21.07.2015 07:24 20,6 C 19,4 C 94 % 0 lf 1012,3 hPa 0,0 l/m 0 min 0 min 51 W/m 14,6 km/h (3 Bft)
21.07.2015 07:26 20,6 C 19,4 C 94 % 0 lf 1012,3 hPa 0,0 l/m 0 min 0 min 59 W/m 16,7 km/h (3 Bft)
21.07.2015 07:28 20,7 C 19,4 C 94 % 0 lf 1012,3 hPa 0,0 l/m 0 min 0 min 50 W/m 23,0 km/h (4 Bft)
21.07.2015 07:30 20,7 C 19,4 C 94 % 0 lf 1012,3 hPa 0,0 l/m 0 min 0 min 28 W/m 14,6 km/h (3 Bft)
21.07.2015 07:32 20,7 C 19,4 C 94 % 0 lf 1012,3 hPa 0,0 l/m 0 min 0 min 32 W/m 20,9 km/h (4 Bft)
21.07.2015 07:34 20,7 C 19,4 C 94 % 0 lf 1012,3 hPa 0,0 l/m 0 min 0 min 46 W/m 12,6 km/h (3 Bft)
21.07.2015 07:36 20,7 C 19,4 C 94 % 0 lf 1012,3 hPa 0,0 l/m 0 min 0 min 69 W/m 16,7 km/h (3 Bft)
21.07.2015 07:38 20,7 C 19,4 C 94 % 0 lf 1012,3 hPa 0,0 l/m 0 min 0 min 87 W/m 18,8 km/h (3 Bft)
21.07.2015 07:40 20,8 C 19,4 C 94 % 0 lf 1012,3 hPa 0,0 l/m 0 min 0 min 97 W/m 14,6 km/h (3 Bft)
21.07.2015 07:42 20,8 C 19,4 C 94 % 0 lf 1012,3 hPa 0,0 l/m 0 min 0 min 115 W/m 12,6 km/h (3 Bft)
21.07.2015 07:44 20,8 C 20,0 C 93 % 0 lf 1012,3 hPa 0,0 l/m 0 min 0 min 135 W/m 14,6 km/h (3 Bft)
21.07.2015 07:46 20,8 C 20,0 C 93 % 0 lf 1012,3 hPa 0,0 l/m 2 min 0 min 162 W/m 18,8 km/h (3 Bft)
21.07.2015 07:48 20,9 C 20,0 C 93 % 0 lf 1012,3 hPa 0,0 l/m 2 min 0 min 170 W/m 14,6 km/h (3 Bft)
21.07.2015 07:50 20,9 C 20,0 C 93 % 0 lf 1012,3 hPa 0,0 l/m 2 min 0 min 172 W/m 18,8 km/h (3 Bft)
21.07.2015 07:52 21,0 C 20,0 C 94 % 0 lf 1012,3 hPa 0,0 l/m 0 min 0 min 130 W/m 16,7 km/h (3 Bft)
21.07.2015 07:54 21,0 C 20,0 C 94 % 0 lf 1012,3 hPa 0,0 l/m 0 min 0 min 116 W/m 18,8 km/h (3 Bft)
21.07.2015 07:56 21,1 C 20,0 C 93 % 0 lf 1012,3 hPa 0,0 l/m 0 min 0 min 75 W/m 14,6 km/h (3 Bft)
21.07.2015 07:58 21,1 C 20,0 C 93 % 0 lf 1012,4 hPa 0,0 l/m 0 min 0 min 63 W/m 16,7 km/h (3 Bft)
21.07.2015 08:00 21,1 C 20,0 C 93 % 0 lf 1012,3 hPa 0,0 l/m 0 min 0 min 81 W/m 12,6 km/h (3 Bft)
21.07.2015 08:02 21,2 C 20,0 C 93 % 0 lf 1012,4 hPa 0,0 l/m 0 min 0 min 84 W/m 10,5 km/h (2 Bft)
21.07.2015 08:04 21,2 C 20,0 C 93 % 0 lf 1012,4 hPa 0,0 l/m 0 min 0 min 85 W/m 16,7 km/h (3 Bft)
21.07.2015 08:06 21,2 C 20,0 C 93 % 0 lf 1012,5 hPa 0,0 l/m 0 min 0 min 90 W/m 27,2 km/h (4 Bft)
21.07.2015 08:08 21,2 C 20,0 C 93 % 0 lf 1012,5 hPa 0,0 l/m 0 min 0 min 97 W/m 14,6 km/h (3 Bft)
21.07.2015 08:10 21,2 C 20,0 C 92 % 0 lf 1012,5 hPa 0,0 l/m 0 min 0 min 138 W/m 25,1 km/h (4 Bft)
21.07.2015 08:12 21,3 C 20,6 C 92 % 0 lf 1012,5 hPa 0,0 l/m 0 min 0 min 157 W/m 20,9 km/h (4 Bft)
21.07.2015 08:14 21,3 C 20,6 C 92 % 0 lf 1012,5 hPa 0,0 l/m 0 min 0 min 131 W/m 16,7 km/h (3 Bft)
21.07.2015 08:16 21,3 C 20,6 C 92 % 0 lf 1012,6 hPa 0,0 l/m 0 min 0 min 100 W/m 25,1 km/h (4 Bft)
21.07.2015 08:18 21,3 C 20,6 C 92 % 0 lf 1012,6 hPa 0,0 l/m 0 min 0 min 99 W/m 25,1 km/h (4 Bft)
21.07.2015 08:20 21,3 C 20,6 C 92 % 0 lf 1012,6 hPa 0,0 l/m 0 min 0 min 103 W/m 14,6 km/h (3 Bft)
21.07.2015 08:22 21,4 C 20,6 C 92 % 0 lf 1012,6 hPa 0,0 l/m 0 min 0 min 98 W/m 18,8 km/h (3 Bft)
21.07.2015 08:24 21,4 C 20,6 C 92 % 0 lf 1012,6 hPa 0,0 l/m 0 min 0 min 100 W/m 23,0 km/h (4 Bft)
21.07.2015 08:26 21,4 C 20,6 C 92 % 0 lf 1012,5 hPa 0,0 l/m 0 min 0 min 110 W/m 16,7 km/h (3 Bft)
21.07.2015 08:28 21,4 C 20,6 C 91 % 0 lf 1012,5 hPa 0,0 l/m 0 min 0 min 117 W/m 18,8 km/h (3 Bft)
21.07.2015 08:30 21,4 C 20,6 C 91 % 0 lf 1012,6 hPa 0,0 l/m 0 min 0 min 106 W/m 23,0 km/h (4 Bft)
21.07.2015 08:32 21,4 C 20,6 C 91 % 0 lf 1012,6 hPa 0,0 l/m 0 min 0 min 82 W/m 20,9 km/h (4 Bft)
21.07.2015 08:34 21,5 C 20,0 C 91 % 0 lf 1012,6 hPa 0,0 l/m 0 min 0 min 74 W/m 18,8 km/h (3 Bft)
21.07.2015 08:36 21,5 C 20,0 C 91 % 0 lf 1012,7 hPa 0,0 l/m 0 min 0 min 71 W/m 20,9 km/h (4 Bft)
21.07.2015 08:38 21,5 C 20,0 C 90 % 0 lf 1012,8 hPa 0,0 l/m 0 min 0 min 86 W/m 25,1 km/h (4 Bft)
21.07.2015 08:40 21,5 C 20,0 C 90 % 0 lf 1012,8 hPa 0,0 l/m 0 min 0 min 89 W/m 23,0 km/h (4 Bft)
21.07.2015 08:42 21,5 C 20,0 C 90 % 0 lf 1012,8 hPa 0,0 l/m 0 min 0 min 94 W/m 20,9 km/h (4 Bft)
21.07.2015 08:44 21,5 C 20,0 C 90 % 0 lf 1012,8 hPa 0,0 l/m 0 min 0 min 92 W/m 16,7 km/h (3 Bft)
21.07.2015 08:46 21,5 C 20,0 C 90 % 0 lf 1012,9 hPa 0,0 l/m 0 min 0 min 91 W/m 14,6 km/h (3 Bft)
21.07.2015 08:48 21,5 C 20,0 C 90 % 0 lf 1012,9 hPa 0,0 l/m 0 min 0 min 83 W/m 23,0 km/h (4 Bft)
21.07.2015 08:50 21,6 C 20,0 C 90 % 0 lf 1012,9 hPa 0,0 l/m 0 min 0 min 82 W/m 18,8 km/h (3 Bft)
21.07.2015 08:52 21,5 C 20,0 C 90 % 0 lf 1012,9 hPa 0,0 l/m 0 min 0 min 84 W/m 18,8 km/h (3 Bft)
21.07.2015 08:54 21,5 C 20,0 C 90 % 0 lf 1013,0 hPa 0,0 l/m 0 min 0 min 69 W/m 14,6 km/h (3 Bft)
21.07.2015 08:56 21,5 C 20,0 C 89 % 0 lf 1013,0 hPa 0,0 l/m 0 min 0 min 71 W/m 20,9 km/h (4 Bft)
21.07.2015 08:58 21,4 C 20,0 C 89 % 0 lf 1013,0 hPa 0,0 l/m 0 min 0 min 63 W/m 18,8 km/h (3 Bft)
21.07.2015 09:00 21,4 C 20,0 C 88 % 0 lf 1013,0 hPa 0,0 l/m 0 min 0 min 66 W/m 14,6 km/h (3 Bft)
21.07.2015 09:02 21,4 C 20,0 C 88 % 0 lf 1013,0 hPa 0,0 l/m 0 min 0 min 64 W/m 18,8 km/h (3 Bft)
21.07.2015 09:04 21,4 C 20,0 C 88 % 0 lf 1013,0 hPa 0,0 l/m 0 min 0 min 65 W/m 23,0 km/h (4 Bft)
21.07.2015 09:06 21,3 C 20,0 C 87 % 0 lf 1012,9 hPa 0,0 l/m 0 min 0 min 91 W/m 10,5 km/h (2 Bft)
21.07.2015 09:08 21,3 C 20,0 C 87 % 0 lf 1012,9 hPa 0,0 l/m 0 min 0 min 125 W/m 12,6 km/h (3 Bft)
21.07.2015 09:10 21,3 C 20,0 C 87 % 0 lf 1013,0 hPa 0,0 l/m 0 min 0 min 146 W/m 14,6 km/h (3 Bft)
21.07.2015 09:12 21,3 C 20,0 C 87 % 0 lf 1013,1 hPa 0,0 l/m 0 min 0 min 170 W/m 20,9 km/h (4 Bft)
21.07.2015 09:14 21,3 C 20,6 C 87 % 0 lf 1013,1 hPa 0,0 l/m 0 min 0 min 205 W/m 20,9 km/h (4 Bft)
21.07.2015 09:16 21,3 C 20,6 C 87 % 0 lf 1013,1 hPa 0,0 l/m 0 min 0 min 212 W/m 18,8 km/h (3 Bft)
21.07.2015 09:18 21,4 C 20,6 C 87 % 0 lf 1013,1 hPa 0,0 l/m 2 min 0 min 257 W/m 20,9 km/h (4 Bft)
21.07.2015 09:20 21,4 C 20,6 C 87 % 0 lf 1013,1 hPa 0,0 l/m 2 min 0 min 333 W/m 16,7 km/h (3 Bft)
21.07.2015 09:22 21,5 C 20,6 C 87 % 0 lf 1013,2 hPa 0,0 l/m 2 min 0 min 280 W/m 31,4 km/h (5 Bft)
21.07.2015 09:24 21,6 C 21,1 C 87 % 0 lf 1013,2 hPa 0,0 l/m 2 min 0 min 259 W/m 25,1 km/h (4 Bft)
21.07.2015 09:26 21,6 C 21,1 C 86 % 0 lf 1013,2 hPa 0,0 l/m 0 min 0 min 231 W/m 20,9 km/h (4 Bft)
21.07.2015 09:28 21,6 C 21,1 C 86 % 0 lf 1013,2 hPa 0,0 l/m 0 min 0 min 257 W/m 29,3 km/h (5 Bft)
21.07.2015 09:30 21,7 C 21,1 C 85 % 0 lf 1013,3 hPa 0,0 l/m 2 min 0 min 546 W/m 25,1 km/h (4 Bft)
21.07.2015 09:32 21,8 C 21,1 C 85 % 0 lf 1013,2 hPa 0,0 l/m 2 min 0 min 479 W/m 23,0 km/h (4 Bft)
21.07.2015 09:34 21,8 C 21,1 C 84 % 0 lf 1013,3 hPa 0,0 l/m 2 min 0 min 273 W/m 25,1 km/h (4 Bft)
21.07.2015 09:36 21,9 C 20,6 C 83 % 0 lf 1013,3 hPa 0,0 l/m 0 min 0 min 204 W/m 20,9 km/h (4 Bft)
21.07.2015 09:38 21,9 C 20,6 C 83 % 0 lf 1013,2 hPa 0,0 l/m 0 min 0 min 219 W/m 23,0 km/h (4 Bft)
21.07.2015 09:40 22,0 C 20,6 C 82 % 0 lf 1013,2 hPa 0,0 l/m 2 min 0 min 275 W/m 20,9 km/h (4 Bft)
21.07.2015 09:42 22,0 C 20,6 C 82 % 0 lf 1013,2 hPa 0,0 l/m 2 min 0 min 296 W/m 23,0 km/h (4 Bft)
21.07.2015 09:44 22,1 C 20,6 C 82 % 0 lf 1013,2 hPa 0,0 l/m 2 min 0 min 286 W/m 23,0 km/h (4 Bft)
21.07.2015 09:46 22,1 C 20,6 C 81 % 0 lf 1013,2 hPa 0,0 l/m 0 min 0 min 237 W/m 18,8 km/h (3 Bft)
21.07.2015 09:48 22,2 C 21,1 C 81 % 0 lf 1013,3 hPa 0,0 l/m 0 min 0 min 237 W/m 18,8 km/h (3 Bft)
21.07.2015 09:50 22,2 C 21,1 C 81 % 0 lf 1013,3 hPa 0,0 l/m 0 min 0 min 237 W/m 18,8 km/h (3 Bft)
21.07.2015 09:52 22,3 C 21,7 C 81 % 0 lf 1013,3 hPa 0,0 l/m 2 min 0 min 345 W/m 23,0 km/h (4 Bft)
21.07.2015 09:54 22,4 C 22,2 C 81 % 0 lf 1013,3 hPa 0,0 l/m 2 min 0 min 666 W/m 23,0 km/h (4 Bft)
21.07.2015 09:56 22,6 C 22,8 C 80 % 0 lf 1013,3 hPa 0,0 l/m 2 min 0 min 741 W/m 20,9 km/h (4 Bft)
21.07.2015 09:58 22,7 C 23,3 C 79 % 0 lf 1013,3 hPa 0,0 l/m 2 min 0 min 752 W/m 31,4 km/h (5 Bft)
21.07.2015 10:00 22,9 C 23,9 C 78 % 0 lf 1013,3 hPa 0,0 l/m 2 min 0 min 720 W/m 20,9 km/h (4 Bft)
21.07.2015 10:02 23,0 C 23,3 C 78 % 0 lf 1013,3 hPa 0,0 l/m 2 min 0 min 686 W/m 20,9 km/h (4 Bft)
21.07.2015 10:04 23,1 C 22,8 C 74 % 0 lf 1013,3 hPa 0,0 l/m 2 min 0 min 315 W/m 37,7 km/h (5 Bft)
21.07.2015 10:06 23,1 C 22,2 C 73 % 0 lf 1013,3 hPa 0,0 l/m 0 min 0 min 265 W/m 33,5 km/h (5 Bft)
21.07.2015 10:08 23,1 C 22,2 C 72 % 0 lf 1013,4 hPa 0,0 l/m 0 min 0 min 295 W/m 31,4 km/h (5 Bft)
21.07.2015 10:10 23,1 C 23,3 C 72 % 0 lf 1013,4 hPa 0,0 l/m 2 min 0 min 357 W/m 29,3 km/h (5 Bft)
21.07.2015 10:12 23,1 C 23,9 C 73 % 0 lf 1013,4 hPa 0,0 l/m 2 min 0 min 371 W/m 25,1 km/h (4 Bft)
21.07.2015 10:14 23,1 C 24,4 C 73 % 0 lf 1013,3 hPa 0,0 l/m 2 min 0 min 344 W/m 18,8 km/h (3 Bft)
21.07.2015 10:16 23,2 C 24,4 C 73 % 0 lf 1013,4 hPa 0,0 l/m 0 min 0 min 270 W/m 18,8 km/h (3 Bft)
21.07.2015 10:18 23,2 C 24,4 C 72 % 0 lf 1013,4 hPa 0,0 l/m 0 min 0 min 289 W/m 18,8 km/h (3 Bft)
21.07.2015 10:20 23,3 C 24,4 C 73 % 0 lf 1013,3 hPa 0,0 l/m 2 min 0 min 356 W/m 14,6 km/h (3 Bft)
21.07.2015 10:22 23,4 C 25,0 C 73 % 0 lf 1013,2 hPa 0,0 l/m 0 min 0 min 288 W/m 20,9 km/h (4 Bft)
21.07.2015 10:24 23,5 C 25,6 C 73 % 0 lf 1013,3 hPa 0,0 l/m 2 min 0 min 742 W/m 16,7 km/h (3 Bft)
21.07.2015 10:26 23,6 C 25,6 C 72 % 0 lf 1013,2 hPa 0,0 l/m 2 min 0 min 762 W/m 14,6 km/h (3 Bft)
21.07.2015 10:28 23,7 C 25,6 C 72 % 0 lf 1013,2 hPa 0,0 l/m 2 min 0 min 774 W/m 16,7 km/h (3 Bft)
21.07.2015 10:30 23,7 C 26,1 C 72 % 0 lf 1013,3 hPa 0,0 l/m 2 min 0 min 767 W/m 20,9 km/h (4 Bft)
21.07.2015 10:32 23,8 C 26,7 C 72 % 0 lf 1013,3 hPa 0,0 l/m 2 min 0 min 719 W/m 27,2 km/h (4 Bft)
21.07.2015 10:34 23,9 C 26,7 C 73 % 0 lf 1013,3 hPa 0,0 l/m 2 min 0 min 830 W/m 18,8 km/h (3 Bft)
21.07.2015 10:36 24,1 C 26,1 C 72 % 0 lf 1013,3 hPa 0,0 l/m 2 min 0 min 606 W/m 23,0 km/h (4 Bft)
21.07.2015 10:38 24,2 C 25,0 C 70 % 0 lf 1013,3 hPa 0,0 l/m 2 min 0 min 373 W/m 25,1 km/h (4 Bft)
21.07.2015 10:40 24,2 C 25,0 C 69 % 0 lf 1013,3 hPa 0,0 l/m 2 min 0 min 342 W/m 29,3 km/h (5 Bft)
21.07.2015 10:42 24,3 C 25,0 C 69 % 0 lf 1013,3 hPa 0,0 l/m 2 min 0 min 390 W/m 35,6 km/h (5 Bft)
21.07.2015 10:44 24,3 C 25,0 C 69 % 0 lf 1013,4 hPa 0,0 l/m 2 min 0 min 746 W/m 33,5 km/h (5 Bft)
21.07.2015 10:46 24,4 C 24,4 C 68 % 0 lf 1013,4 hPa 0,0 l/m 2 min 0 min 730 W/m 37,7 km/h (5 Bft)
21.07.2015 10:48 24,5 C 24,4 C 69 % 0 lf 1013,4 hPa 0,0 l/m 2 min 0 min 728 W/m 27,2 km/h (4 Bft)
21.07.2015 10:50 24,6 C 25,0 C 68 % 0 lf 1013,4 hPa 0,0 l/m 2 min 0 min 763 W/m 25,1 km/h (4 Bft)
21.07.2015 10:52 24,6 C 25,0 C 69 % 0 lf 1013,4 hPa 0,0 l/m 2 min 0 min 747 W/m 14,6 km/h (3 Bft)
21.07.2015 10:54 24,7 C 25,0 C 69 % 0 lf 1013,4 hPa 0,0 l/m 2 min 0 min 696 W/m 20,9 km/h (4 Bft)
21.07.2015 10:56 24,7 C 24,4 C 68 % 0 lf 1013,4 hPa 0,0 l/m 2 min 0 min 466 W/m 23,0 km/h (4 Bft)
21.07.2015 10:58 24,7 C 24,4 C 68 % 0 lf 1013,5 hPa 0,0 l/m 2 min 0 min 472 W/m 16,7 km/h (3 Bft)
21.07.2015 11:00 24,7 C 25,6 C 69 % 0 lf 1013,4 hPa 0,0 l/m 2 min 0 min 742 W/m 18,8 km/h (3 Bft)
21.07.2015 11:02 24,7 C 25,6 C 68 % 0 lf 1013,4 hPa 0,0 l/m 2 min 0 min 739 W/m 25,1 km/h (4 Bft)
21.07.2015 11:04 24,8 C 26,1 C 69 % 0 lf 1013,5 hPa 0,0 l/m 2 min 0 min 741 W/m 18,8 km/h (3 Bft)
21.07.2015 11:06 24,9 C 26,1 C 69 % 0 lf 1013,4 hPa 0,0 l/m 2 min 0 min 749 W/m 23,0 km/h (4 Bft)
21.07.2015 11:08 25,0 C 26,1 C 69 % 0 lf 1013,5 hPa 0,0 l/m 2 min 0 min 764 W/m 20,9 km/h (4 Bft)
21.07.2015 11:10 25,1 C 25,6 C 68 % 0 lf 1013,5 hPa 0,0 l/m 2 min 0 min 800 W/m 20,9 km/h (4 Bft)
21.07.2015 11:12 25,2 C 25,6 C 69 % 0 lf 1013,6 hPa 0,0 l/m 2 min 0 min 886 W/m 25,1 km/h (4 Bft)
21.07.2015 11:14 25,3 C 25,0 C 68 % 0 lf 1013,6 hPa 0,0 l/m 2 min 0 min 526 W/m 16,7 km/h (3 Bft)
21.07.2015 11:16 25,3 C 23,9 C 68 % 0 lf 1013,6 hPa 0,0 l/m 0 min 0 min 335 W/m 18,8 km/h (3 Bft)
21.07.2015 11:18 25,3 C 24,4 C 67 % 0 lf 1013,6 hPa 0,0 l/m 0 min 0 min 311 W/m 16,7 km/h (3 Bft)
21.07.2015 11:20 25,3 C 23,9 C 68 % 0 lf 1013,6 hPa 0,0 l/m 0 min 0 min 343 W/m 33,5 km/h (5 Bft)
21.07.2015 11:22 25,3 C 25,0 C 68 % 0 lf 1013,6 hPa 0,0 l/m 2 min 0 min 394 W/m 25,1 km/h (4 Bft)
21.07.2015 11:24 25,4 C 25,0 C 68 % 0 lf 1013,6 hPa 0,0 l/m 2 min 0 min 960 W/m 23,0 km/h (4 Bft)
21.07.2015 11:26 25,4 C 23,9 C 67 % 0 lf 1013,6 hPa 0,0 l/m 2 min 0 min 703 W/m 23,0 km/h (4 Bft)
21.07.2015 11:28 25,4 C 23,9 C 67 % 0 lf 1013,7 hPa 0,0 l/m 0 min 0 min 319 W/m 18,8 km/h (3 Bft)
21.07.2015 11:30 25,3 C 24,4 C 67 % 0 lf 1013,7 hPa 0,0 l/m 0 min 0 min 351 W/m 18,8 km/h (3 Bft)
21.07.2015 11:32 25,4 C 23,9 C 69 % 0 lf 1013,7 hPa 0,0 l/m 0 min 0 min 347 W/m 16,7 km/h (3 Bft)
21.07.2015 11:34 25,4 C 24,4 C 69 % 0 lf 1013,7 hPa 0,0 l/m 0 min 0 min 350 W/m 20,9 km/h (4 Bft)
21.07.2015 11:36 25,4 C 24,4 C 69 % 0 lf 1013,7 hPa 0,0 l/m 0 min 0 min 341 W/m 16,7 km/h (3 Bft)
21.07.2015 11:38 25,4 C 24,4 C 69 % 0 lf 1013,7 hPa 0,0 l/m 0 min 0 min 324 W/m 18,8 km/h (3 Bft)
21.07.2015 11:40 25,4 C 24,4 C 69 % 0 lf 1013,7 hPa 0,0 l/m 0 min 0 min 358 W/m 16,7 km/h (3 Bft)
21.07.2015 11:42 25,5 C 25,6 C 67 % 0 lf 1013,7 hPa 0,0 l/m 2 min 0 min 428 W/m 18,8 km/h (3 Bft)
21.07.2015 11:44 25,5 C 25,6 C 67 % 0 lf 1013,7 hPa 0,0 l/m 2 min 0 min 657 W/m 25,1 km/h (4 Bft)
21.07.2015 11:46 25,6 C 26,1 C 66 % 0 lf 1013,7 hPa 0,0 l/m 2 min 0 min 657 W/m 27,2 km/h (4 Bft)
21.07.2015 11:48 25,7 C 27,8 C 67 % 0 lf 1013,6 hPa 0,0 l/m 2 min 0 min 745 W/m 20,9 km/h (4 Bft)
21.07.2015 11:50 25,8 C 28,3 C 67 % 0 lf 1013,7 hPa 0,0 l/m 2 min 0 min 990 W/m 18,8 km/h (3 Bft)
21.07.2015 11:52 25,9 C 27,8 C 66 % 0 lf 1013,7 hPa 0,0 l/m 2 min 0 min 960 W/m 25,1 km/h (4 Bft)
21.07.2015 11:54 26,0 C 26,7 C 65 % 0 lf 1013,7 hPa 0,0 l/m 2 min 0 min 960 W/m 23,0 km/h (4 Bft)
21.07.2015 11:56 26,1 C 26,7 C 66 % 0 lf 1013,7 hPa 0,0 l/m 2 min 0 min 960 W/m 14,6 km/h (3 Bft)
21.07.2015 11:58 26,2 C 25,6 C 65 % 0 lf 1013,7 hPa 0,0 l/m 2 min 0 min 650 W/m 23,0 km/h (4 Bft)
21.07.2015 12:00 26,2 C 26,7 C 64 % 0 lf 1013,8 hPa 0,0 l/m 0 min 0 min 387 W/m 18,8 km/h (3 Bft)
21.07.2015 12:02 26,3 C 26,7 C 65 % 0 lf 1013,8 hPa 0,0 l/m 0 min 0 min 387 W/m 18,8 km/h (3 Bft)
21.07.2015 12:05 26,3 C 27,8 C 65 % 0 lf 1013,8 hPa 0,0 l/m 2 min 0 min 1114 W/m 16,7 km/h (3 Bft)
21.07.2015 12:08 26,5 C 27,8 C 63 % 0 lf 1013,7 hPa 0,0 l/m 2 min 0 min 949 W/m 27,2 km/h (4 Bft)
21.07.2015 12:10 26,6 C 28,3 C 63 % 0 lf 1013,7 hPa 0,0 l/m 2 min 0 min 992 W/m 23,0 km/h (4 Bft)
21.07.2015 12:12 26,7 C 28,9 C 65 % 0 lf 1013,8 hPa 0,0 l/m 2 min 0 min 911 W/m 23,0 km/h (4 Bft)
21.07.2015 12:14 26,8 C 27,8 C 63 % 0 lf 1013,8 hPa 0,0 l/m 2 min 0 min 705 W/m 18,8 km/h (3 Bft)
21.07.2015 12:16 26,8 C 27,2 C 63 % 0 lf 1013,8 hPa 0,0 l/m 2 min 0 min 456 W/m 20,9 km/h (4 Bft)
21.07.2015 12:18 26,9 C 27,8 C 65 % 0 lf 1013,8 hPa 0,0 l/m 2 min 0 min 445 W/m 16,7 km/h (3 Bft)
21.07.2015 12:20 26,9 C 27,2 C 63 % 0 lf 1013,7 hPa 0,0 l/m 2 min 0 min 481 W/m 20,9 km/h (4 Bft)
21.07.2015 12:22 27,0 C 27,8 C 62 % 0 lf 1013,8 hPa 0,0 l/m 2 min 0 min 474 W/m 25,1 km/h (4 Bft)
21.07.2015 12:24 27,0 C 26,1 C 61 % 0 lf 1013,8 hPa 0,0 l/m 0 min 0 min 394 W/m 27,2 km/h (4 Bft)
21.07.2015 12:26 26,9 C 25,6 C 62 % 0 lf 1013,9 hPa 0,0 l/m 2 min 0 min 406 W/m 27,2 km/h (4 Bft)
21.07.2015 12:27 26,8 C 25,6 C 61 % 0 lf 1013,7 hPa 0,0 l/m 1 min 0 min 418 W/m 23,0 km/h (4 Bft)
21.07.2015 12:28 26,8 C 25,0 C 62 % 0 lf 1013,7 hPa 0,0 l/m 1 min 0 min 418 W/m 18,8 km/h (3 Bft)
21.07.2015 12:29 26,8 C 25,0 C 63 % 0 lf 1013,7 hPa 0,0 l/m 1 min 0 min 448 W/m 14,6 km/h (3 Bft)
21.07.2015 12:32 26,7 C 25,6 C 64 % 0 lf 1013,7 hPa 0,0 l/m 2 min 0 min 453 W/m 12,6 km/h (3 Bft)
21.07.2015 12:34 26,7 C 26,1 C 64 % 0 lf 1013,7 hPa 0,0 l/m 2 min 0 min 517 W/m 16,7 km/h (3 Bft)
21.07.2015 12:36 26,6 C 26,1 C 61 % 0 lf 1013,7 hPa 0,0 l/m 2 min 0 min 526 W/m 31,4 km/h (5 Bft)
21.07.2015 12:38 26,6 C 26,7 C 63 % 0 lf 1013,7 hPa 0,0 l/m 2 min 0 min 671 W/m 20,9 km/h (4 Bft)
21.07.2015 12:40 26,7 C 26,7 C 64 % 0 lf 1013,8 hPa 0,0 l/m 2 min 0 min 663 W/m 27,2 km/h (4 Bft)
21.07.2015 12:42 26,7 C 26,1 C 63 % 0 lf 1013,9 hPa 0,0 l/m 2 min 0 min 540 W/m 20,9 km/h (4 Bft)
21.07.2015 12:44 26,7 C 26,1 C 62 % 0 lf 1013,8 hPa 0,0 l/m 2 min 0 min 550 W/m 20,9 km/h (4 Bft)
21.07.2015 12:46 26,7 C 26,1 C 62 % 0 lf 1013,8 hPa 0,0 l/m 2 min 0 min 588 W/m 25,1 km/h (4 Bft)
21.07.2015 12:48 26,7 C 26,1 C 62 % 0 lf 1013,8 hPa 0,0 l/m 2 min 0 min 576 W/m 16,7 km/h (3 Bft)
21.07.2015 12:50 26,7 C 26,1 C 61 % 0 lf 1013,8 hPa 0,0 l/m 2 min 0 min 604 W/m 20,9 km/h (4 Bft)
21.07.2015 12:52 26,7 C 26,1 C 64 % 0 lf 1013,9 hPa 0,0 l/m 2 min 0 min 610 W/m 18,8 km/h (3 Bft)
21.07.2015 12:54 26,7 C 26,1 C 63 % 0 lf 1013,8 hPa 0,0 l/m 2 min 0 min 533 W/m 10,5 km/h (2 Bft)
21.07.2015 12:56 26,8 C 25,6 C 62 % 0 lf 1013,9 hPa 0,0 l/m 0 min 0 min 386 W/m 14,6 km/h (3 Bft)
21.07.2015 12:58 26,8 C 25,6 C 64 % 0 lf 1013,9 hPa 0,0 l/m 0 min 0 min 368 W/m 27,2 km/h (4 Bft)
21.07.2015 13:00 26,7 C 25,0 C 62 % 0 lf 1013,9 hPa 0,0 l/m 0 min 0 min 379 W/m 20,9 km/h (4 Bft)
21.07.2015 13:02 26,7 C 24,4 C 63 % 0 lf 1013,9 hPa 0,0 l/m 0 min 0 min 361 W/m 27,2 km/h (4 Bft)
21.07.2015 13:04 26,6 C 24,4 C 64 % 0 lf 1013,9 hPa 0,0 l/m 0 min 0 min 386 W/m 16,7 km/h (3 Bft)
21.07.2015 13:06 26,4 C 24,4 C 64 % 0 lf 1013,9 hPa 0,0 l/m 0 min 0 min 406 W/m 16,7 km/h (3 Bft)
21.07.2015 13:08 26,3 C 24,4 C 64 % 0 lf 1013,9 hPa 0,0 l/m 0 min 0 min 410 W/m 25,1 km/h (4 Bft)
21.07.2015 13:10 26,3 C 25,0 C 64 % 0 lf 1013,9 hPa 0,0 l/m 2 min 0 min 433 W/m 27,2 km/h (4 Bft)
21.07.2015 13:12 26,1 C 24,4 C 65 % 0 lf 1013,9 hPa 0,0 l/m 0 min 0 min 407 W/m 23,0 km/h (4 Bft)
21.07.2015 13:14 26,1 C 25,0 C 66 % 0 lf 1014,0 hPa 0,0 l/m 0 min 0 min 397 W/m 16,7 km/h (3 Bft)
21.07.2015 13:16 26,0 C 25,0 C 66 % 0 lf 1014,0 hPa 0,0 l/m 2 min 0 min 435 W/m 20,9 km/h (4 Bft)
21.07.2015 13:18 26,0 C 25,0 C 66 % 0 lf 1014,0 hPa 0,0 l/m 0 min 0 min 367 W/m 16,7 km/h (3 Bft)
21.07.2015 13:20 25,9 C 24,4 C 66 % 0 lf 1014,1 hPa 0,0 l/m 0 min 0 min 382 W/m 23,0 km/h (4 Bft)
21.07.2015 13:22 25,9 C 24,4 C 66 % 0 lf 1014,0 hPa 0,0 l/m 0 min 0 min 401 W/m 16,7 km/h (3 Bft)
21.07.2015 13:24 25,9 C 25,0 C 66 % 0 lf 1014,0 hPa 0,0 l/m 2 min 0 min 500 W/m 16,7 km/h (3 Bft)
21.07.2015 13:26 25,9 C 25,6 C 67 % 0 lf 1014,0 hPa 0,0 l/m 2 min 0 min 481 W/m 16,7 km/h (3 Bft)
21.07.2015 13:28 25,9 C 25,6 C 68 % 0 lf 1014,1 hPa 0,0 l/m 2 min 0 min 469 W/m 25,1 km/h (4 Bft)
21.07.2015 13:30 25,9 C 25,0 C 68 % 0 lf 1014,0 hPa 0,0 l/m 2 min 0 min 587 W/m 23,0 km/h (4 Bft)
21.07.2015 13:32 26,0 C 25,0 C 69 % 0 lf 1014,1 hPa 0,0 l/m 2 min 0 min 615 W/m 27,2 km/h (4 Bft)
21.07.2015 13:34 25,9 C 24,4 C 68 % 0 lf 1014,1 hPa 0,0 l/m 2 min 0 min 478 W/m 25,1 km/h (4 Bft)
21.07.2015 13:36 25,9 C 25,0 C 69 % 0 lf 1014,1 hPa 0,0 l/m 2 min 0 min 439 W/m 27,2 km/h (4 Bft)
21.07.2015 13:38 25,9 C 25,0 C 69 % 0 lf 1014,1 hPa 0,0 l/m 2 min 0 min 439 W/m 27,2 km/h (4 Bft)
21.07.2015 13:40 25,9 C 25,6 C 71 % 0 lf 1014,1 hPa 0,0 l/m 2 min 0 min 982 W/m 25,1 km/h (4 Bft)
21.07.2015 13:42 26,0 C 25,6 C 70 % 0 lf 1014,1 hPa 0,0 l/m 2 min 0 min 1209 W/m 29,3 km/h (5 Bft)
21.07.2015 13:44 26,1 C 25,6 C 70 % 0 lf 1014,1 hPa 0,0 l/m 2 min 0 min 556 W/m 25,1 km/h (4 Bft)
21.07.2015 13:46 26,1 C 25,6 C 70 % 0 lf 1014,1 hPa 0,0 l/m 2 min 0 min 561 W/m 20,9 km/h (4 Bft)
21.07.2015 13:48 26,2 C 25,6 C 71 % 0 lf 1014,1 hPa 0,0 l/m 2 min 0 min 453 W/m 18,8 km/h (3 Bft)
21.07.2015 13:50 26,3 C 25,6 C 71 % 0 lf 1014,1 hPa 0,0 l/m 2 min 0 min 441 W/m 16,7 km/h (3 Bft)
21.07.2015 13:52 26,4 C 25,6 C 70 % 0 lf 1014,1 hPa 0,0 l/m 2 min 0 min 542 W/m 20,9 km/h (4 Bft)
21.07.2015 13:54 26,4 C 26,1 C 70 % 0 lf 1014,1 hPa 0,0 l/m 2 min 0 min 744 W/m 23,0 km/h (4 Bft)
21.07.2015 13:56 26,5 C 26,1 C 71 % 0 lf 1014,1 hPa 0,0 l/m 2 min 0 min 744 W/m 14,6 km/h (3 Bft)
21.07.2015 13:58 26,6 C 26,1 C 69 % 0 lf 1014,1 hPa 0,0 l/m 2 min 0 min 677 W/m 20,9 km/h (4 Bft)
21.07.2015 14:00 26,7 C 25,6 C 69 % 0 lf 1014,2 hPa 0,0 l/m 2 min 0 min 605 W/m 23,0 km/h (4 Bft)
21.07.2015 14:02 26,6 C 25,0 C 68 % 0 lf 1014,1 hPa 0,0 l/m 0 min 0 min 394 W/m 23,0 km/h (4 Bft)
21.07.2015 14:04 26,5 C 24,4 C 68 % 0 lf 1014,2 hPa 0,0 l/m 0 min 0 min 401 W/m 18,8 km/h (3 Bft)
21.07.2015 14:06 26,4 C 24,4 C 67 % 0 lf 1014,1 hPa 0,0 l/m 2 min 0 min 537 W/m 33,5 km/h (5 Bft)
21.07.2015 14:08 26,3 C 25,0 C 68 % 0 lf 1014,1 hPa 0,0 l/m 2 min 0 min 550 W/m 25,1 km/h (4 Bft)
21.07.2015 14:10 26,3 C 25,0 C 69 % 0 lf 1014,1 hPa 0,0 l/m 2 min 0 min 524 W/m 27,2 km/h (4 Bft)
21.07.2015 14:12 26,2 C 25,0 C 69 % 0 lf 1014,1 hPa 0,0 l/m 2 min 0 min 506 W/m 18,8 km/h (3 Bft)
21.07.2015 14:14 26,2 C 25,0 C 69 % 0 lf 1014,1 hPa 0,0 l/m 2 min 0 min 469 W/m 23,0 km/h (4 Bft)
21.07.2015 14:16 26,2 C 25,0 C 69 % 0 lf 1014,1 hPa 0,0 l/m 2 min 0 min 508 W/m 23,0 km/h (4 Bft)
21.07.2015 14:18 26,2 C 25,6 C 70 % 0 lf 1014,1 hPa 0,0 l/m 2 min 0 min 550 W/m 23,0 km/h (4 Bft)
21.07.2015 14:20 26,1 C 25,6 C 70 % 0 lf 1014,1 hPa 0,0 l/m 2 min 0 min 505 W/m 18,8 km/h (3 Bft)
21.07.2015 14:22 26,1 C 25,6 C 70 % 0 lf 1014,1 hPa 0,0 l/m 2 min 0 min 488 W/m 16,7 km/h (3 Bft)
21.07.2015 14:24 26,1 C 25,6 C 70 % 0 lf 1014,2 hPa 0,0 l/m 2 min 0 min 457 W/m 14,6 km/h (3 Bft)
21.07.2015 14:26 26,2 C 25,6 C 71 % 0 lf 1014,1 hPa 0,0 l/m 2 min 0 min 445 W/m 16,7 km/h (3 Bft)
21.07.2015 14:28 26,2 C 25,0 C 70 % 0 lf 1014,1 hPa 0,0 l/m 2 min 0 min 424 W/m 23,0 km/h (4 Bft)
21.07.2015 14:30 26,1 C 25,0 C 70 % 0 lf 1014,1 hPa 0,0 l/m 2 min 0 min 423 W/m 27,2 km/h (4 Bft)
21.07.2015 14:32 26,1 C 24,4 C 70 % 0 lf 1014,1 hPa 0,0 l/m 2 min 0 min 420 W/m 25,1 km/h (4 Bft)
21.07.2015 14:34 25,9 C 25,0 C 70 % 0 lf 1014,1 hPa 0,0 l/m 2 min 0 min 453 W/m 23,0 km/h (4 Bft)
21.07.2015 14:36 25,9 C 25,0 C 70 % 0 lf 1014,1 hPa 0,0 l/m 2 min 0 min 506 W/m 20,9 km/h (4 Bft)
21.07.2015 14:38 25,9 C 25,0 C 71 % 0 lf 1014,1 hPa 0,0 l/m 2 min 0 min 526 W/m 20,9 km/h (4 Bft)
21.07.2015 14:40 25,8 C 24,4 C 71 % 0 lf 1014,1 hPa 0,0 l/m 2 min 0 min 463 W/m 23,0 km/h (4 Bft)
21.07.2015 14:42 25,7 C 24,4 C 71 % 0 lf 1014,2 hPa 0,0 l/m 2 min 0 min 501 W/m 25,1 km/h (4 Bft)
21.07.2015 14:44 25,7 C 25,0 C 72 % 0 lf 1014,2 hPa 0,0 l/m 2 min 0 min 565 W/m 31,4 km/h (5 Bft)
21.07.2015 14:46 25,6 C 25,0 C 72 % 0 lf 1014,2 hPa 0,0 l/m 2 min 0 min 447 W/m 29,3 km/h (5 Bft)
21.07.2015 14:48 25,6 C 25,0 C 72 % 0 lf 1014,2 hPa 0,0 l/m 2 min 0 min 514 W/m 23,0 km/h (4 Bft)
21.07.2015 14:50 25,5 C 24,4 C 71 % 0 lf 1014,2 hPa 0,0 l/m 2 min 0 min 460 W/m 23,0 km/h (4 Bft)
21.07.2015 14:52 25,5 C 24,4 C 72 % 0 lf 1014,2 hPa 0,0 l/m 2 min 0 min 432 W/m 27,2 km/h (4 Bft)
21.07.2015 14:54 25,4 C 24,4 C 72 % 0 lf 1014,1 hPa 0,0 l/m 2 min 0 min 504 W/m 25,1 km/h (4 Bft)
21.07.2015 14:56 25,4 C 24,4 C 73 % 0 lf 1014,2 hPa 0,0 l/m 2 min 0 min 523 W/m 27,2 km/h (4 Bft)
21.07.2015 14:58 25,3 C 24,4 C 73 % 0 lf 1014,1 hPa 0,0 l/m 2 min 0 min 545 W/m 20,9 km/h (4 Bft)
21.07.2015 15:00 25,3 C 24,4 C 73 % 0 lf 1014,1 hPa 0,0 l/m 2 min 0 min 473 W/m 25,1 km/h (4 Bft)
21.07.2015 15:02 25,3 C 24,4 C 73 % 0 lf 1014,1 hPa 0,0 l/m 2 min 0 min 474 W/m 25,1 km/h (4 Bft)
21.07.2015 15:04 25,2 C 24,4 C 74 % 0 lf 1014,1 hPa 0,0 l/m 2 min 0 min 474 W/m 25,1 km/h (4 Bft)
21.07.2015 15:06 25,2 C 25,0 C 74 % 0 lf 1014,1 hPa 0,0 l/m 2 min 0 min 526 W/m 20,9 km/h (4 Bft)
21.07.2015 15:08 25,3 C 25,0 C 74 % 0 lf 1014,1 hPa 0,0 l/m 2 min 0 min 594 W/m 23,0 km/h (4 Bft)
21.07.2015 15:10 25,3 C 25,0 C 75 % 0 lf 1014,0 hPa 0,0 l/m 2 min 0 min 502 W/m 20,9 km/h (4 Bft)
21.07.2015 15:12 25,3 C 25,0 C 75 % 0 lf 1014,0 hPa 0,0 l/m 2 min 0 min 456 W/m 23,0 km/h (4 Bft)
21.07.2015 15:14 25,4 C 25,0 C 74 % 0 lf 1014,1 hPa 0,0 l/m 2 min 0 min 525 W/m 25,1 km/h (4 Bft)
21.07.2015 15:16 25,4 C 25,0 C 74 % 0 lf 1014,1 hPa 0,0 l/m 2 min 0 min 507 W/m 23,0 km/h (4 Bft)
21.07.2015 15:18 25,4 C 25,0 C 75 % 0 lf 1014,0 hPa 0,0 l/m 2 min 0 min 461 W/m 18,8 km/h (3 Bft)
21.07.2015 15:20 25,4 C 25,0 C 75 % 0 lf 1014,1 hPa 0,0 l/m 2 min 0 min 492 W/m 16,7 km/h (3 Bft)
21.07.2015 15:22 25,6 C 25,6 C 76 % 0 lf 1014,0 hPa 0,0 l/m 2 min 0 min 719 W/m 18,8 km/h (3 Bft)
21.07.2015 15:24 25,7 C 25,6 C 76 % 0 lf 1013,9 hPa 0,0 l/m 2 min 0 min 823 W/m 14,6 km/h (3 Bft)
21.07.2015 15:26 25,8 C 25,6 C 75 % 0 lf 1013,9 hPa 0,0 l/m 2 min 0 min 558 W/m 16,7 km/h (3 Bft)
21.07.2015 15:28 25,9 C 25,6 C 76 % 0 lf 1013,9 hPa 0,0 l/m 2 min 0 min 475 W/m 14,6 km/h (3 Bft)
21.07.2015 15:30 26,0 C 25,6 C 75 % 0 lf 1013,9 hPa 0,0 l/m 2 min 0 min 533 W/m 23,0 km/h (4 Bft)
21.07.2015 15:32 26,1 C 25,6 C 74 % 0 lf 1014,0 hPa 0,0 l/m 2 min 0 min 563 W/m 25,1 km/h (4 Bft)
21.07.2015 15:34 26,2 C 25,6 C 73 % 0 lf 1013,9 hPa 0,0 l/m 2 min 0 min 563 W/m 27,2 km/h (4 Bft)
21.07.2015 15:36 26,2 C 25,0 C 72 % 0 lf 1013,9 hPa 0,0 l/m 2 min 0 min 563 W/m 31,4 km/h (5 Bft)
21.07.2015 15:38 26,2 C 25,0 C 72 % 0 lf 1013,8 hPa 0,0 l/m 2 min 0 min 563 W/m 25,1 km/h (4 Bft)
21.07.2015 15:40 26,2 C 25,0 C 72 % 0 lf 1013,9 hPa 0,0 l/m 0 min 0 min 355 W/m 23,0 km/h (4 Bft)
21.07.2015 15:42 26,2 C 25,0 C 72 % 0 lf 1013,8 hPa 0,0 l/m 2 min 0 min 386 W/m 27,2 km/h (4 Bft)
21.07.2015 15:44 26,2 C 25,6 C 73 % 0 lf 1013,7 hPa 0,0 l/m 2 min 0 min 380 W/m 20,9 km/h (4 Bft)
21.07.2015 15:46 26,2 C 25,6 C 72 % 0 lf 1013,7 hPa 0,0 l/m 2 min 0 min 1028 W/m 18,8 km/h (3 Bft)
21.07.2015 15:48 26,2 C 25,6 C 72 % 0 lf 1013,6 hPa 0,0 l/m 2 min 0 min 1071 W/m 18,8 km/h (3 Bft)
21.07.2015 15:50 26,2 C 25,6 C 73 % 0 lf 1013,6 hPa 0,0 l/m 2 min 0 min 744 W/m 25,1 km/h (4 Bft)
21.07.2015 15:52 26,2 C 25,6 C 73 % 0 lf 1013,6 hPa 0,0 l/m 0 min 0 min 309 W/m 14,6 km/h (3 Bft)
21.07.2015 15:54 26,2 C 25,0 C 73 % 0 lf 1013,6 hPa 0,0 l/m 0 min 0 min 278 W/m 16,7 km/h (3 Bft)
21.07.2015 15:56 26,2 C 25,0 C 72 % 0 lf 1013,5 hPa 0,0 l/m 0 min 0 min 307 W/m 16,7 km/h (3 Bft)
21.07.2015 15:58 26,1 C 25,0 C 73 % 0 lf 1013,5 hPa 0,0 l/m 2 min 0 min 413 W/m 18,8 km/h (3 Bft)
21.07.2015 16:00 26,2 C 25,0 C 74 % 0 lf 1013,5 hPa 0,0 l/m 0 min 0 min 340 W/m 16,7 km/h (3 Bft)
21.07.2015 16:02 26,2 C 25,0 C 73 % 0 lf 1013,5 hPa 0,0 l/m 0 min 0 min 293 W/m 16,7 km/h (3 Bft)
21.07.2015 16:04 26,2 C 25,0 C 74 % 0 lf 1013,5 hPa 0,0 l/m 2 min 0 min 376 W/m 27,2 km/h (4 Bft)
21.07.2015 16:06 26,2 C 25,0 C 73 % 0 lf 1013,5 hPa 0,0 l/m 2 min 0 min 449 W/m 29,3 km/h (5 Bft)
21.07.2015 16:08 26,2 C 25,6 C 74 % 0 lf 1013,6 hPa 0,0 l/m 2 min 0 min 537 W/m 23,0 km/h (4 Bft)
21.07.2015 16:10 26,2 C 25,6 C 74 % 0 lf 1013,6 hPa 0,0 l/m 2 min 0 min 387 W/m 20,9 km/h (4 Bft)
21.07.2015 16:12 26,2 C 25,0 C 73 % 0 lf 1013,6 hPa 0,0 l/m 2 min 0 min 418 W/m 20,9 km/h (4 Bft)
21.07.2015 16:14 26,2 C 25,0 C 73 % 0 lf 1013,6 hPa 0,0 l/m 0 min 0 min 330 W/m 31,4 km/h (5 Bft)
21.07.2015 16:16 26,1 C 25,0 C 74 % 0 lf 1013,5 hPa 0,0 l/m 2 min 0 min 365 W/m 16,7 km/h (3 Bft)
21.07.2015 16:18 26,1 C 25,0 C 74 % 0 lf 1013,5 hPa 0,0 l/m 0 min 0 min 334 W/m 18,8 km/h (3 Bft)
21.07.2015 16:20 26,1 C 25,6 C 74 % 0 lf 1013,5 hPa 0,0 l/m 2 min 0 min 363 W/m 20,9 km/h (4 Bft)
21.07.2015 16:22 26,1 C 25,6 C 74 % 0 lf 1013,5 hPa 0,0 l/m 2 min 0 min 441 W/m 18,8 km/h (3 Bft)
21.07.2015 16:24 26,2 C 25,6 C 75 % 0 lf 1013,4 hPa 0,0 l/m 2 min 0 min 437 W/m 16,7 km/h (3 Bft)
21.07.2015 16:26 26,2 C 25,6 C 74 % 0 lf 1013,4 hPa 0,0 l/m 2 min 0 min 460 W/m 23,0 km/h (4 Bft)
21.07.2015 16:28 26,2 C 25,6 C 74 % 0 lf 1013,5 hPa 0,0 l/m 2 min 0 min 432 W/m 16,7 km/h (3 Bft)
21.07.2015 16:30 26,2 C 25,6 C 73 % 0 lf 1013,5 hPa 0,0 l/m 0 min 0 min 319 W/m 18,8 km/h (3 Bft)
21.07.2015 16:32 26,3 C 25,6 C 74 % 0 lf 1013,4 hPa 0,0 l/m 2 min 0 min 386 W/m 16,7 km/h (3 Bft)
21.07.2015 16:34 26,3 C 25,6 C 74 % 0 lf 1013,4 hPa 0,0 l/m 2 min 0 min 540 W/m 12,6 km/h (3 Bft)
21.07.2015 16:36 26,4 C 26,1 C 74 % 0 lf 1013,4 hPa 0,0 l/m 2 min 0 min 551 W/m 16,7 km/h (3 Bft)
21.07.2015 16:38 26,6 C 26,1 C 73 % 0 lf 1013,4 hPa 0,0 l/m 2 min 0 min 598 W/m 29,3 km/h (5 Bft)
21.07.2015 16:40 26,6 C 26,1 C 72 % 0 lf 1013,5 hPa 0,0 l/m 2 min 0 min 733 W/m 27,2 km/h (4 Bft)
21.07.2015 16:42 26,7 C 26,1 C 71 % 0 lf 1013,5 hPa 0,0 l/m 2 min 0 min 774 W/m 27,2 km/h (4 Bft)
21.07.2015 16:44 26,8 C 26,1 C 71 % 0 lf 1013,4 hPa 0,0 l/m 2 min 0 min 756 W/m 33,5 km/h (5 Bft)
21.07.2015 16:46 26,9 C 26,1 C 70 % 0 lf 1013,4 hPa 0,0 l/m 2 min 0 min 770 W/m 31,4 km/h (5 Bft)
21.07.2015 16:48 26,9 C 26,1 C 71 % 0 lf 1013,3 hPa 0,0 l/m 2 min 0 min 686 W/m 18,8 km/h (3 Bft)
21.07.2015 16:50 27,1 C 26,1 C 70 % 0 lf 1013,3 hPa 0,0 l/m 2 min 0 min 592 W/m 23,0 km/h (4 Bft)
21.07.2015 16:52 27,1 C 26,1 C 70 % 0 lf 1013,3 hPa 0,0 l/m 2 min 0 min 768 W/m 29,3 km/h (5 Bft)
21.07.2015 16:54 27,2 C 25,6 C 69 % 0 lf 1013,4 hPa 0,0 l/m 2 min 0 min 542 W/m 29,3 km/h (5 Bft)
21.07.2015 16:56 27,1 C 25,6 C 68 % 0 lf 1013,4 hPa 0,0 l/m 0 min 0 min 215 W/m 20,9 km/h (4 Bft)
21.07.2015 16:58 27,1 C 25,6 C 69 % 0 lf 1013,4 hPa 0,0 l/m 0 min 0 min 284 W/m 12,6 km/h (3 Bft)
21.07.2015 17:00 27,1 C 25,6 C 70 % 0 lf 1013,4 hPa 0,0 l/m 0 min 0 min 287 W/m 12,6 km/h (3 Bft)
21.07.2015 17:02 27,1 C 25,6 C 70 % 0 lf 1013,4 hPa 0,0 l/m 0 min 0 min 283 W/m 23,0 km/h (4 Bft)
21.07.2015 17:04 27,1 C 25,6 C 70 % 0 lf 1013,4 hPa 0,0 l/m 0 min 0 min 237 W/m 18,8 km/h (3 Bft)
21.07.2015 17:06 27,1 C 25,6 C 69 % 0 lf 1013,3 hPa 0,0 l/m 0 min 0 min 246 W/m 16,7 km/h (3 Bft)
21.07.2015 17:08 27,0 C 25,0 C 69 % 0 lf 1013,4 hPa 0,0 l/m 0 min 0 min 254 W/m 23,0 km/h (4 Bft)
21.07.2015 17:10 27,0 C 25,6 C 70 % 0 lf 1013,4 hPa 0,0 l/m 0 min 0 min 272 W/m 16,7 km/h (3 Bft)
21.07.2015 17:12 27,0 C 25,6 C 70 % 0 lf 1013,3 hPa 0,0 l/m 2 min 0 min 334 W/m 33,5 km/h (5 Bft)
21.07.2015 17:14 27,0 C 25,6 C 71 % 0 lf 1013,3 hPa 0,0 l/m 2 min 0 min 334 W/m 25,1 km/h (4 Bft)
21.07.2015 17:16 27,0 C 25,6 C 71 % 0 lf 1013,3 hPa 0,0 l/m 2 min 0 min 334 W/m 25,1 km/h (4 Bft)
21.07.2015 17:18 27,0 C 25,6 C 70 % 0 lf 1013,4 hPa 0,0 l/m 2 min 0 min 334 W/m 20,9 km/h (4 Bft)
21.07.2015 17:20 27,1 C 25,6 C 70 % 0 lf 1013,3 hPa 0,0 l/m 2 min 0 min 380 W/m 16,7 km/h (3 Bft)
21.07.2015 17:22 27,1 C 25,6 C 70 % 0 lf 1013,3 hPa 0,0 l/m 2 min 0 min 703 W/m 16,7 km/h (3 Bft)
21.07.2015 17:24 27,1 C 25,6 C 70 % 0 lf 1013,2 hPa 0,0 l/m 2 min 0 min 312 W/m 20,9 km/h (4 Bft)
21.07.2015 17:26 27,1 C 25,6 C 70 % 0 lf 1013,3 hPa 0,0 l/m 2 min 0 min 465 W/m 23,0 km/h (4 Bft)
21.07.2015 17:28 27,1 C 25,0 C 70 % 0 lf 1013,2 hPa 0,0 l/m 2 min 0 min 643 W/m 20,9 km/h (4 Bft)
21.07.2015 17:30 27,1 C 25,0 C 70 % 0 lf 1013,1 hPa 0,0 l/m 2 min 0 min 642 W/m 20,9 km/h (4 Bft)
21.07.2015 17:32 27,1 C 24,4 C 70 % 0 lf 1013,2 hPa 0,0 l/m 0 min 0 min 145 W/m 23,0 km/h (4 Bft)
21.07.2015 17:34 27,1 C 24,4 C 70 % 0 lf 1013,2 hPa 0,0 l/m 0 min 0 min 149 W/m 20,9 km/h (4 Bft)
21.07.2015 17:36 27,0 C 24,4 C 70 % 0 lf 1013,1 hPa 0,0 l/m 2 min 0 min 542 W/m 20,9 km/h (4 Bft)
21.07.2015 17:38 27,0 C 25,0 C 70 % 0 lf 1013,1 hPa 0,0 l/m 2 min 0 min 650 W/m 29,3 km/h (5 Bft)
21.07.2015 17:40 26,9 C 25,0 C 69 % 0 lf 1013,3 hPa 0,0 l/m 2 min 0 min 627 W/m 23,0 km/h (4 Bft)
21.07.2015 17:42 26,9 C 25,0 C 69 % 0 lf 1013,3 hPa 0,0 l/m 2 min 0 min 661 W/m 29,3 km/h (5 Bft)
21.07.2015 17:44 26,9 C 24,4 C 70 % 0 lf 1013,1 hPa 0,0 l/m 2 min 0 min 521 W/m 20,9 km/h (4 Bft)
21.07.2015 17:46 26,9 C 25,0 C 70 % 0 lf 1013,2 hPa 0,0 l/m 2 min 0 min 570 W/m 14,6 km/h (3 Bft)
21.07.2015 17:48 26,8 C 25,0 C 70 % 0 lf 1013,2 hPa 0,0 l/m 2 min 0 min 289 W/m 25,1 km/h (4 Bft)
21.07.2015 17:50 26,8 C 25,0 C 70 % 0 lf 1013,1 hPa 0,0 l/m 2 min 0 min 295 W/m 25,1 km/h (4 Bft)
21.07.2015 17:52 26,8 C 25,0 C 71 % 0 lf 1013,2 hPa 0,0 l/m 2 min 0 min 585 W/m 23,0 km/h (4 Bft)
21.07.2015 17:54 26,7 C 25,0 C 70 % 0 lf 1013,1 hPa 0,0 l/m 0 min 0 min 223 W/m 29,3 km/h (5 Bft)
21.07.2015 17:56 26,7 C 24,4 C 71 % 0 lf 1013,0 hPa 0,0 l/m 2 min 0 min 549 W/m 16,7 km/h (3 Bft)
21.07.2015 17:58 26,7 C 24,4 C 71 % 0 lf 1013,0 hPa 0,0 l/m 2 min 0 min 522 W/m 23,0 km/h (4 Bft)
21.07.2015 18:00 26,7 C 24,4 C 70 % 0 lf 1013,0 hPa 0,0 l/m 2 min 0 min 517 W/m 31,4 km/h (5 Bft)
21.07.2015 18:02 26,6 C 24,4 C 71 % 0 lf 1013,1 hPa 0,0 l/m 2 min 0 min 524 W/m 27,2 km/h (4 Bft)
21.07.2015 18:05 26,6 C 24,4 C 71 % 0 lf 1013,0 hPa 0,0 l/m 2 min 0 min 512 W/m 14,6 km/h (3 Bft)
21.07.2015 18:08 26,6 C 24,4 C 71 % 0 lf 1013,1 hPa 0,0 l/m 2 min 0 min 512 W/m 18,8 km/h (3 Bft)
21.07.2015 18:10 26,6 C 24,4 C 70 % 0 lf 1013,1 hPa 0,0 l/m 2 min 0 min 491 W/m 23,0 km/h (4 Bft)
21.07.2015 18:12 26,6 C 24,4 C 71 % 0 lf 1013,1 hPa 0,0 l/m 2 min 0 min 506 W/m 18,8 km/h (3 Bft)
21.07.2015 18:14 26,6 C 24,4 C 70 % 0 lf 1013,0 hPa 0,0 l/m 2 min 0 min 526 W/m 23,0 km/h (4 Bft)
21.07.2015 18:16 26,6 C 24,4 C 71 % 0 lf 1012,9 hPa 0,0 l/m 2 min 0 min 487 W/m 20,9 km/h (4 Bft)
21.07.2015 18:18 26,6 C 24,4 C 70 % 0 lf 1013,0 hPa 0,0 l/m 2 min 0 min 455 W/m 18,8 km/h (3 Bft)
21.07.2015 18:20 26,5 C 24,4 C 70 % 0 lf 1013,1 hPa 0,0 l/m 2 min 0 min 230 W/m 18,8 km/h (3 Bft)
21.07.2015 18:22 26,5 C 24,4 C 71 % 0 lf 1013,0 hPa 0,0 l/m 0 min 0 min 111 W/m 16,7 km/h (3 Bft)
21.07.2015 18:24 26,5 C 23,9 C 71 % 0 lf 1013,0 hPa 0,0 l/m 0 min 0 min 109 W/m 18,8 km/h (3 Bft)
21.07.2015 18:26 26,4 C 23,9 C 71 % 0 lf 1012,9 hPa 0,0 l/m 0 min 0 min 137 W/m 18,8 km/h (3 Bft)
21.07.2015 18:28 26,4 C 23,9 C 71 % 0 lf 1012,9 hPa 0,0 l/m 2 min 0 min 274 W/m 12,6 km/h (3 Bft)
21.07.2015 18:30 26,4 C 23,9 C 71 % 0 lf 1012,8 hPa 0,0 l/m 2 min 0 min 340 W/m 10,5 km/h (2 Bft)
21.07.2015 18:32 26,4 C 24,4 C 71 % 0 lf 1012,9 hPa 0,0 l/m 2 min 0 min 431 W/m 14,6 km/h (3 Bft)
21.07.2015 18:34 26,3 C 24,4 C 71 % 0 lf 1012,8 hPa 0,0 l/m 2 min 0 min 445 W/m 14,6 km/h (3 Bft)
21.07.2015 18:36 26,3 C 24,4 C 71 % 0 lf 1013,0 hPa 0,0 l/m 2 min 0 min 442 W/m 20,9 km/h (4 Bft)
21.07.2015 18:38 26,3 C 24,4 C 71 % 0 lf 1012,9 hPa 0,0 l/m 2 min 0 min 406 W/m 18,8 km/h (3 Bft)
21.07.2015 18:40 26,3 C 24,4 C 71 % 0 lf 1013,0 hPa 0,0 l/m 2 min 0 min 434 W/m 25,1 km/h (4 Bft)
21.07.2015 18:42 26,3 C 24,4 C 70 % 0 lf 1013,0 hPa 0,0 l/m 2 min 0 min 410 W/m 25,1 km/h (4 Bft)
21.07.2015 18:44 26,3 C 24,4 C 70 % 0 lf 1013,0 hPa 0,0 l/m 2 min 0 min 346 W/m 18,8 km/h (3 Bft)
21.07.2015 18:46 26,3 C 23,9 C 70 % 0 lf 1013,0 hPa 0,0 l/m 2 min 0 min 245 W/m 23,0 km/h (4 Bft)
21.07.2015 18:48 26,3 C 23,9 C 71 % 0 lf 1012,9 hPa 0,0 l/m 0 min 0 min 113 W/m 16,7 km/h (3 Bft)
21.07.2015 18:50 26,3 C 23,9 C 71 % 0 lf 1012,9 hPa 0,0 l/m 0 min 0 min 106 W/m 20,9 km/h (4 Bft)
21.07.2015 18:52 26,2 C 23,9 C 71 % 0 lf 1012,9 hPa 0,0 l/m 0 min 0 min 81 W/m 25,1 km/h (4 Bft)
21.07.2015 18:54 26,2 C 23,3 C 70 % 0 lf 1012,9 hPa 0,0 l/m 0 min 0 min 93 W/m 25,1 km/h (4 Bft)
21.07.2015 18:56 26,1 C 23,9 C 71 % 0 lf 1012,9 hPa 0,0 l/m 2 min 0 min 292 W/m 18,8 km/h (3 Bft)
21.07.2015 18:58 26,1 C 23,9 C 71 % 0 lf 1012,9 hPa 0,0 l/m 0 min 0 min 144 W/m 20,9 km/h (4 Bft)
21.07.2015 19:00 26,0 C 23,9 C 71 % 0 lf 1012,9 hPa 0,0 l/m 0 min 0 min 157 W/m 18,8 km/h (3 Bft)
21.07.2015 19:02 26,0 C 23,9 C 71 % 0 lf 1012,9 hPa 0,0 l/m 2 min 0 min 377 W/m 23,0 km/h (4 Bft)
21.07.2015 19:04 25,9 C 23,9 C 71 % 0 lf 1012,9 hPa 0,0 l/m 2 min 0 min 333 W/m 20,9 km/h (4 Bft)
21.07.2015 19:06 25,9 C 23,9 C 71 % 0 lf 1012,8 hPa 0,0 l/m 2 min 0 min 323 W/m 27,2 km/h (4 Bft)
21.07.2015 19:08 25,9 C 23,9 C 71 % 0 lf 1012,9 hPa 0,0 l/m 2 min 0 min 278 W/m 18,8 km/h (3 Bft)
21.07.2015 19:10 25,9 C 23,9 C 71 % 0 lf 1012,9 hPa 0,0 l/m 2 min 0 min 202 W/m 25,1 km/h (4 Bft)
21.07.2015 19:12 25,9 C 23,9 C 71 % 0 lf 1012,9 hPa 0,0 l/m 0 min 0 min 89 W/m 18,8 km/h (3 Bft)
21.07.2015 19:14 25,9 C 23,9 C 71 % 0 lf 1012,9 hPa 0,0 l/m 0 min 0 min 80 W/m 14,6 km/h (3 Bft)
21.07.2015 19:16 25,8 C 23,3 C 71 % 0 lf 1012,9 hPa 0,0 l/m 2 min 0 min 175 W/m 18,8 km/h (3 Bft)
21.07.2015 19:18 25,8 C 23,9 C 71 % 0 lf 1012,9 hPa 0,0 l/m 2 min 0 min 284 W/m 25,1 km/h (4 Bft)
21.07.2015 19:20 25,8 C 23,3 C 71 % 0 lf 1012,8 hPa 0,0 l/m 2 min 0 min 274 W/m 18,8 km/h (3 Bft)
21.07.2015 19:22 25,8 C 23,3 C 71 % 0 lf 1012,8 hPa 0,0 l/m 2 min 0 min 268 W/m 12,6 km/h (3 Bft)
21.07.2015 19:24 25,7 C 23,3 C 71 % 0 lf 1012,7 hPa 0,0 l/m 2 min 0 min 265 W/m 29,3 km/h (5 Bft)
21.07.2015 19:26 25,7 C 23,3 C 71 % 0 lf 1012,7 hPa 0,0 l/m 2 min 0 min 258 W/m 16,7 km/h (3 Bft)
21.07.2015 19:28 25,7 C 23,3 C 71 % 0 lf 1012,8 hPa 0,0 l/m 2 min 0 min 247 W/m 25,1 km/h (4 Bft)
21.07.2015 19:30 25,7 C 23,3 C 71 % 0 lf 1012,8 hPa 0,0 l/m 2 min 0 min 240 W/m 20,9 km/h (4 Bft)
21.07.2015 19:32 25,7 C 23,3 C 71 % 0 lf 1012,8 hPa 0,0 l/m 0 min 0 min 93 W/m 20,9 km/h (4 Bft)
21.07.2015 19:34 25,7 C 23,3 C 71 % 0 lf 1012,8 hPa 0,0 l/m 0 min 0 min 83 W/m 18,8 km/h (3 Bft)
21.07.2015 19:36 25,6 C 23,3 C 71 % 0 lf 1012,8 hPa 0,0 l/m 2 min 0 min 197 W/m 16,7 km/h (3 Bft)
21.07.2015 19:38 25,6 C 23,3 C 72 % 0 lf 1012,9 hPa 0,0 l/m 0 min 0 min 119 W/m 14,6 km/h (3 Bft)
21.07.2015 19:40 25,6 C 23,3 C 72 % 0 lf 1012,9 hPa 0,0 l/m 2 min 0 min 206 W/m 14,6 km/h (3 Bft)
21.07.2015 19:42 25,6 C 23,3 C 72 % 0 lf 1012,9 hPa 0,0 l/m 2 min 0 min 203 W/m 18,8 km/h (3 Bft)
21.07.2015 19:44 25,6 C 23,3 C 72 % 0 lf 1012,9 hPa 0,0 l/m 2 min 0 min 198 W/m 10,5 km/h (2 Bft)
21.07.2015 19:46 25,6 C 23,3 C 72 % 0 lf 1013,0 hPa 0,0 l/m 2 min 0 min 192 W/m 14,6 km/h (3 Bft)
21.07.2015 19:48 25,6 C 23,3 C 72 % 0 lf 1012,9 hPa 0,0 l/m 2 min 0 min 188 W/m 18,8 km/h (3 Bft)
21.07.2015 19:50 25,5 C 23,3 C 72 % 0 lf 1013,0 hPa 0,0 l/m 2 min 0 min 181 W/m 14,6 km/h (3 Bft)
21.07.2015 19:52 25,5 C 23,3 C 71 % 0 lf 1012,9 hPa 0,0 l/m 2 min 0 min 173 W/m 18,8 km/h (3 Bft)
21.07.2015 19:54 25,5 C 23,3 C 71 % 0 lf 1013,0 hPa 0,0 l/m 2 min 0 min 163 W/m 20,9 km/h (4 Bft)
21.07.2015 19:56 25,4 C 23,3 C 71 % 0 lf 1012,9 hPa 0,0 l/m 2 min 0 min 159 W/m 14,6 km/h (3 Bft)
21.07.2015 19:58 25,4 C 23,3 C 71 % 0 lf 1013,0 hPa 0,0 l/m 2 min 0 min 151 W/m 20,9 km/h (4 Bft)
21.07.2015 20:00 25,4 C 23,3 C 71 % 0 lf 1013,0 hPa 0,0 l/m 2 min 0 min 146 W/m 18,8 km/h (3 Bft)
21.07.2015 20:02 25,4 C 23,3 C 71 % 0 lf 1012,9 hPa 0,0 l/m 2 min 0 min 140 W/m 14,6 km/h (3 Bft)
21.07.2015 20:04 25,4 C 23,3 C 72 % 0 lf 1012,9 hPa 0,0 l/m 2 min 0 min 134 W/m 10,5 km/h (2 Bft)
21.07.2015 20:06 25,4 C 22,8 C 72 % 0 lf 1013,0 hPa 0,0 l/m 2 min 0 min 128 W/m 10,5 km/h (2 Bft)
21.07.2015 20:08 25,4 C 22,8 C 72 % 0 lf 1013,0 hPa 0,0 l/m 2 min 0 min 123 W/m 12,6 km/h (3 Bft)
21.07.2015 20:10 25,4 C 22,8 C 72 % 0 lf 1012,9 hPa 0,0 l/m 2 min 0 min 118 W/m 12,6 km/h (3 Bft)
21.07.2015 20:12 25,3 C 22,8 C 72 % 0 lf 1013,0 hPa 0,0 l/m 2 min 0 min 113 W/m 10,5 km/h (2 Bft)
21.07.2015 20:14 25,3 C 22,8 C 72 % 0 lf 1012,9 hPa 0,0 l/m 2 min 0 min 108 W/m 10,5 km/h (2 Bft)
21.07.2015 20:16 25,3 C 22,8 C 72 % 0 lf 1012,9 hPa 0,0 l/m 2 min 0 min 103 W/m 8,4 km/h (2 Bft)
21.07.2015 20:18 25,3 C 22,8 C 72 % 0 lf 1012,9 hPa 0,0 l/m 2 min 0 min 97 W/m 14,6 km/h (3 Bft)
21.07.2015 20:20 25,3 C 22,8 C 72 % 0 lf 1012,9 hPa 0,0 l/m 2 min 0 min 92 W/m 14,6 km/h (3 Bft)
21.07.2015 20:22 25,3 C 22,8 C 72 % 0 lf 1012,9 hPa 0,0 l/m 2 min 0 min 89 W/m 8,4 km/h (2 Bft)
21.07.2015 20:24 25,3 C 22,8 C 73 % 0 lf 1012,9 hPa 0,0 l/m 2 min 0 min 84 W/m 14,6 km/h (3 Bft)
21.07.2015 20:26 25,2 C 22,8 C 73 % 0 lf 1012,9 hPa 0,0 l/m 2 min 0 min 80 W/m 8,4 km/h (2 Bft)
21.07.2015 20:28 25,2 C 22,8 C 73 % 0 lf 1012,9 hPa 0,0 l/m 2 min 0 min 76 W/m 4,2 km/h (1 Bft)
21.07.2015 20:30 25,2 C 22,2 C 73 % 0 lf 1012,9 hPa 0,0 l/m 2 min 0 min 72 W/m 4,2 km/h (1 Bft)
21.07.2015 20:32 25,2 C 22,2 C 73 % 0 lf 1012,9 hPa 0,0 l/m 0 min 0 min 68 W/m 8,4 km/h (2 Bft)
21.07.2015 20:34 25,1 C 22,2 C 73 % 0 lf 1012,9 hPa 0,0 l/m 0 min 0 min 64 W/m 6,3 km/h (2 Bft)
21.07.2015 20:36 25,1 C 22,2 C 73 % 0 lf 1012,9 hPa 0,0 l/m 0 min 0 min 62 W/m 10,5 km/h (2 Bft)
21.07.2015 20:38 25,1 C 22,2 C 73 % 0 lf 1012,9 hPa 0,0 l/m 0 min 0 min 57 W/m 10,5 km/h (2 Bft)
21.07.2015 20:40 25,1 C 22,2 C 73 % 0 lf 1012,9 hPa 0,0 l/m 0 min 0 min 53 W/m 6,3 km/h (2 Bft)
21.07.2015 20:42 25,1 C 22,2 C 73 % 0 lf 1012,9 hPa 0,0 l/m 0 min 0 min 49 W/m 4,2 km/h (1 Bft)
21.07.2015 20:44 25,0 C 22,2 C 73 % 0 lf 1012,9 hPa 0,0 l/m 0 min 0 min 46 W/m 10,5 km/h (2 Bft)
21.07.2015 20:46 25,0 C 22,2 C 73 % 0 lf 1012,9 hPa 0,0 l/m 0 min 0 min 42 W/m 10,5 km/h (2 Bft)
21.07.2015 20:48 24,9 C 22,2 C 73 % 0 lf 1012,8 hPa 0,0 l/m 0 min 0 min 40 W/m 8,4 km/h (2 Bft)
21.07.2015 20:50 24,9 C 21,7 C 73 % 0 lf 1012,8 hPa 0,0 l/m 0 min 0 min 36 W/m 14,6 km/h (3 Bft)
21.07.2015 20:52 24,9 C 21,7 C 73 % 0 lf 1012,9 hPa 0,0 l/m 0 min 0 min 34 W/m 14,6 km/h (3 Bft)
21.07.2015 20:54 24,8 C 21,7 C 73 % 0 lf 1012,9 hPa 0,0 l/m 0 min 0 min 31 W/m 10,5 km/h (2 Bft)
21.07.2015 20:56 24,8 C 21,7 C 73 % 0 lf 1012,9 hPa 0,0 l/m 0 min 0 min 29 W/m 10,5 km/h (2 Bft)
21.07.2015 20:58 24,7 C 21,7 C 73 % 0 lf 1012,9 hPa 0,0 l/m 0 min 0 min 27 W/m 10,5 km/h (2 Bft)
21.07.2015 21:00 24,7 C 21,7 C 73 % 0 lf 1012,9 hPa 0,0 l/m 0 min 0 min 26 W/m 10,5 km/h (2 Bft)
21.07.2015 21:02 24,7 C 21,7 C 74 % 0 lf 1012,9 hPa 0,0 l/m 0 min 0 min 25 W/m 10,5 km/h (2 Bft)
21.07.2015 21:04 24,6 C 21,7 C 74 % 0 lf 1013,0 hPa 0,0 l/m 0 min 0 min 23 W/m 8,4 km/h (2 Bft)
21.07.2015 21:06 24,6 C 21,7 C 74 % 0 lf 1012,9 hPa 0,0 l/m 0 min 0 min 21 W/m 8,4 km/h (2 Bft)
21.07.2015 21:08 24,6 C 21,1 C 74 % 0 lf 1013,0 hPa 0,0 l/m 0 min 0 min 21 W/m 8,4 km/h (2 Bft)
21.07.2015 21:10 24,6 C 21,1 C 74 % 0 lf 1012,9 hPa 0,0 l/m 0 min 0 min 19 W/m 8,4 km/h (2 Bft)
21.07.2015 21:12 24,5 C 21,1 C 74 % 0 lf 1012,9 hPa 0,0 l/m 0 min 0 min 19 W/m 8,4 km/h (2 Bft)
21.07.2015 21:14 24,4 C 21,1 C 74 % 0 lf 1013,0 hPa 0,0 l/m 0 min 0 min 18 W/m 6,3 km/h (2 Bft)
21.07.2015 21:16 24,4 C 21,1 C 74 % 0 lf 1013,0 hPa 0,0 l/m 0 min 0 min 18 W/m 8,4 km/h (2 Bft)
21.07.2015 21:18 24,4 C 21,1 C 74 % 0 lf 1013,1 hPa 0,0 l/m 0 min 0 min 16 W/m 8,4 km/h (2 Bft)
21.07.2015 21:20 24,4 C 21,1 C 75 % 0 lf 1013,1 hPa 0,0 l/m 0 min 0 min 16 W/m 8,4 km/h (2 Bft)
21.07.2015 21:22 24,3 C 21,1 C 75 % 0 lf 1013,1 hPa 0,0 l/m 0 min 0 min 14 W/m 8,4 km/h (2 Bft)
21.07.2015 21:24 24,3 C 20,6 C 75 % 0 lf 1013,1 hPa 0,0 l/m 0 min 0 min 13 W/m 6,3 km/h (2 Bft)
21.07.2015 21:26 24,3 C 20,6 C 75 % 0 lf 1013,1 hPa 0,0 l/m 0 min 0 min 12 W/m 4,2 km/h (1 Bft)
21.07.2015 21:28 24,2 C 20,6 C 75 % 0 lf 1013,1 hPa 0,0 l/m 0 min 0 min 12 W/m 4,2 km/h (1 Bft)
21.07.2015 21:30 24,2 C 20,6 C 75 % 0 lf 1013,1 hPa 0,0 l/m 0 min 0 min 11 W/m 8,4 km/h (2 Bft)
21.07.2015 21:32 24,1 C 20,6 C 75 % 0 lf 1013,1 hPa 0,0 l/m 0 min 0 min 10 W/m 8,4 km/h (2 Bft)
21.07.2015 21:34 24,1 C 20,6 C 76 % 0 lf 1013,1 hPa 0,0 l/m 0 min 0 min 9 W/m 8,4 km/h (2 Bft)
21.07.2015 21:36 24,1 C 20,6 C 76 % 0 lf 1013,3 hPa 0,0 l/m 0 min 0 min 7 W/m 6,3 km/h (2 Bft)
21.07.2015 21:38 24,0 C 20,0 C 76 % 0 lf 1013,3 hPa 0,0 l/m 0 min 0 min 7 W/m 6,3 km/h (2 Bft)
21.07.2015 21:40 23,9 C 20,0 C 76 % 0 lf 1013,3 hPa 0,0 l/m 0 min 0 min 6 W/m 6,3 km/h (2 Bft)
21.07.2015 21:42 23,9 C 20,0 C 76 % 0 lf 1013,4 hPa 0,0 l/m 0 min 0 min 5 W/m 4,2 km/h (1 Bft)
21.07.2015 21:44 23,8 C 20,0 C 76 % 0 lf 1013,4 hPa 0,0 l/m 0 min 0 min 5 W/m 6,3 km/h (2 Bft)
21.07.2015 21:46 23,8 C 20,0 C 77 % 0 lf 1013,5 hPa 0,0 l/m 0 min 0 min 5 W/m 6,3 km/h (2 Bft)
21.07.2015 21:48 23,7 C 20,0 C 77 % 0 lf 1013,4 hPa 0,0 l/m 0 min 0 min 5 W/m 6,3 km/h (2 Bft)
21.07.2015 21:50 23,7 C 20,0 C 77 % 0 lf 1013,4 hPa 0,0 l/m 0 min 0 min 0 W/m 4,2 km/h (1 Bft)
21.07.2015 21:52 23,6 C 20,0 C 77 % 0 lf 1013,4 hPa 0,0 l/m 0 min 0 min 0 W/m 4,2 km/h (1 Bft)
21.07.2015 21:54 23,6 C 19,4 C 77 % 0 lf 1013,4 hPa 0,0 l/m 0 min 0 min 0 W/m 4,2 km/h (1 Bft)
21.07.2015 21:56 23,5 C 19,4 C 77 % 0 lf 1013,5 hPa 0,0 l/m 0 min 0 min 0 W/m 4,2 km/h (1 Bft)
21.07.2015 21:58 23,4 C 19,4 C 77 % 0 lf 1013,5 hPa 0,0 l/m 0 min 0 min 0 W/m 4,2 km/h (1 Bft)
21.07.2015 22:00 23,4 C 19,4 C 77 % 0 lf 1013,6 hPa 0,0 l/m 0 min 0 min 0 W/m 4,2 km/h (1 Bft)
21.07.2015 22:02 23,3 C 19,4 C 77 % 0 lf 1013,6 hPa 0,0 l/m 0 min 0 min 0 W/m 6,3 km/h (2 Bft)
21.07.2015 22:04 23,3 C 19,4 C 78 % 0 lf 1013,7 hPa 0,0 l/m 0 min 0 min 0 W/m 6,3 km/h (2 Bft)
21.07.2015 22:06 23,2 C 20,0 C 78 % 0 lf 1013,7 hPa 0,0 l/m 0 min 0 min 0 W/m 6,3 km/h (2 Bft)
21.07.2015 22:08 23,2 C 20,0 C 78 % 0 lf 1013,8 hPa 0,0 l/m 0 min 0 min 0 W/m 2,1 km/h (1 Bft)
21.07.2015 22:10 23,1 C 19,4 C 78 % 0 lf 1013,8 hPa 0,0 l/m 0 min 0 min 0 W/m 4,2 km/h (1 Bft)
21.07.2015 22:12 23,1 C 19,4 C 78 % 0 lf 1013,7 hPa 0,0 l/m 0 min 0 min 0 W/m 4,2 km/h (1 Bft)
21.07.2015 22:14 23,0 C 19,4 C 78 % 0 lf 1013,8 hPa 0,0 l/m 0 min 0 min 0 W/m 6,3 km/h (2 Bft)
21.07.2015 22:16 22,9 C 19,4 C 79 % 0 lf 1013,7 hPa 0,0 l/m 0 min 0 min 0 W/m 4,2 km/h (1 Bft)
21.07.2015 22:18 22,9 C 19,4 C 79 % 0 lf 1013,7 hPa 0,0 l/m 0 min 0 min 0 W/m 4,2 km/h (1 Bft)
21.07.2015 22:20 22,8 C 19,4 C 79 % 0 lf 1013,7 hPa 0,0 l/m 0 min 0 min 0 W/m 4,2 km/h (1 Bft)
21.07.2015 22:22 22,8 C 19,4 C 79 % 0 lf 1013,7 hPa 0,0 l/m 0 min 0 min 0 W/m 2,1 km/h (1 Bft)
21.07.2015 22:24 22,8 C 19,4 C 79 % 0 lf 1013,7 hPa 0,0 l/m 0 min 0 min 0 W/m 2,1 km/h (1 Bft)
21.07.2015 22:26 22,7 C 19,4 C 79 % 0 lf 1013,8 hPa 0,0 l/m 0 min 0 min 0 W/m 2,1 km/h (1 Bft)
21.07.2015 22:28 22,7 C 19,4 C 79 % 0 lf 1013,8 hPa 0,0 l/m 0 min 0 min 0 W/m 2,1 km/h (1 Bft)
21.07.2015 22:30 22,6 C 18,9 C 79 % 0 lf 1013,7 hPa 0,0 l/m 0 min 0 min 0 W/m 2,1 km/h (1 Bft)
21.07.2015 22:32 22,6 C 18,9 C 79 % 0 lf 1013,8 hPa 0,0 l/m 0 min 0 min 0 W/m 2,1 km/h (1 Bft)
21.07.2015 22:34 22,5 C 18,9 C 80 % 0 lf 1013,8 hPa 0,0 l/m 0 min 0 min 0 W/m 2,1 km/h (1 Bft)
21.07.2015 22:36 22,5 C 18,9 C 80 % 0 lf 1013,8 hPa 0,0 l/m 0 min 0 min 0 W/m 0,0 km/h (0 Bft)
21.07.2015 22:38 22,4 C 18,9 C 80 % 0 lf 1013,9 hPa 0,0 l/m 0 min 0 min 0 W/m 0,0 km/h (0 Bft)
21.07.2015 22:40 22,4 C 18,9 C 80 % 0 lf 1013,9 hPa 0,0 l/m 0 min 0 min 0 W/m 0,0 km/h (0 Bft)
21.07.2015 22:42 22,3 C 18,9 C 81 % 0 lf 1013,9 hPa 0,0 l/m 0 min 0 min 0 W/m 0,0 km/h (0 Bft)
21.07.2015 22:44 22,3 C 18,9 C 81 % 0 lf 1013,9 hPa 0,0 l/m 0 min 0 min 0 W/m 0,0 km/h (0 Bft)
21.07.2015 22:46 22,2 C 18,9 C 81 % 0 lf 1013,9 hPa 0,0 l/m 0 min 0 min 0 W/m 2,1 km/h (1 Bft)
21.07.2015 22:48 22,2 C 18,9 C 81 % 0 lf 1013,9 hPa 0,0 l/m 0 min 0 min 0 W/m 2,1 km/h (1 Bft)
21.07.2015 22:50 22,2 C 18,9 C 81 % 0 lf 1013,9 hPa 0,0 l/m 0 min 0 min 0 W/m 2,1 km/h (1 Bft)
21.07.2015 22:52 22,1 C 18,9 C 82 % 0 lf 1013,9 hPa 0,0 l/m 0 min 0 min 0 W/m 2,1 km/h (1 Bft)
21.07.2015 22:54 22,1 C 18,9 C 82 % 0 lf 1013,9 hPa 0,0 l/m 0 min 0 min 0 W/m 4,2 km/h (1 Bft)
21.07.2015 22:56 22,1 C 18,9 C 82 % 0 lf 1013,9 hPa 0,0 l/m 0 min 0 min 0 W/m 4,2 km/h (1 Bft)
21.07.2015 22:58 22,0 C 18,9 C 82 % 0 lf 1013,9 hPa 0,0 l/m 0 min 0 min 0 W/m 4,2 km/h (1 Bft)
21.07.2015 23:00 21,9 C 18,3 C 82 % 0 lf 1013,9 hPa 0,0 l/m 0 min 0 min 0 W/m 4,2 km/h (1 Bft)
21.07.2015 23:02 21,9 C 18,3 C 82 % 0 lf 1013,9 hPa 0,0 l/m 0 min 0 min 0 W/m 2,1 km/h (1 Bft)
21.07.2015 23:04 21,9 C 18,3 C 83 % 0 lf 1013,9 hPa 0,0 l/m 0 min 0 min 0 W/m 2,1 km/h (1 Bft)
21.07.2015 23:06 21,8 C 18,3 C 83 % 0 lf 1013,8 hPa 0,0 l/m 0 min 0 min 0 W/m 4,2 km/h (1 Bft)
21.07.2015 23:08 21,8 C 18,3 C 83 % 0 lf 1013,8 hPa 0,0 l/m 0 min 0 min 0 W/m 2,1 km/h (1 Bft)
21.07.2015 23:10 21,7 C 18,3 C 83 % 0 lf 1013,7 hPa 0,0 l/m 0 min 0 min 0 W/m 4,2 km/h (1 Bft)
21.07.2015 23:12 21,7 C 18,3 C 83 % 0 lf 1013,7 hPa 0,0 l/m 0 min 0 min 0 W/m 2,1 km/h (1 Bft)
21.07.2015 23:14 21,7 C 18,3 C 84 % 0 lf 1013,7 hPa 0,0 l/m 0 min 0 min 0 W/m 2,1 km/h (1 Bft)
21.07.2015 23:16 21,6 C 18,3 C 84 % 0 lf 1013,8 hPa 0,0 l/m 0 min 0 min 0 W/m 2,1 km/h (1 Bft)
21.07.2015 23:18 21,6 C 18,3 C 84 % 0 lf 1013,8 hPa 0,0 l/m 0 min 0 min 0 W/m 2,1 km/h (1 Bft)
21.07.2015 23:20 21,6 C 18,3 C 84 % 0 lf 1013,8 hPa 0,0 l/m 0 min 0 min 0 W/m 2,1 km/h (1 Bft)
21.07.2015 23:22 21,5 C 18,3 C 84 % 0 lf 1013,8 hPa 0,0 l/m 0 min 0 min 0 W/m 2,1 km/h (1 Bft)
21.07.2015 23:24 21,4 C 18,3 C 84 % 0 lf 1013,7 hPa 0,0 l/m 0 min 0 min 0 W/m 2,1 km/h (1 Bft)
21.07.2015 23:26 21,4 C 18,3 C 84 % 0 lf 1013,6 hPa 0,0 l/m 0 min 0 min 0 W/m 4,2 km/h (1 Bft)
21.07.2015 23:28 21,4 C 18,3 C 84 % 0 lf 1013,7 hPa 0,0 l/m 0 min 0 min 0 W/m 4,2 km/h (1 Bft)
21.07.2015 23:30 21,3 C 18,3 C 85 % 0 lf 1013,6 hPa 0,0 l/m 0 min 0 min 0 W/m 2,1 km/h (1 Bft)
21.07.2015 23:32 21,3 C 18,3 C 85 % 0 lf 1013,6 hPa 0,0 l/m 0 min 0 min 0 W/m 4,2 km/h (1 Bft)
21.07.2015 23:34 21,2 C 18,3 C 85 % 0 lf 1013,7 hPa 0,0 l/m 0 min 0 min 0 W/m 2,1 km/h (1 Bft)
21.07.2015 23:36 21,2 C 18,3 C 85 % 0 lf 1013,7 hPa 0,0 l/m 0 min 0 min 0 W/m 2,1 km/h (1 Bft)
21.07.2015 23:38 21,2 C 18,3 C 85 % 0 lf 1013,7 hPa 0,0 l/m 0 min 0 min 0 W/m 2,1 km/h (1 Bft)
21.07.2015 23:40 21,1 C 18,3 C 85 % 0 lf 1013,6 hPa 0,0 l/m 0 min 0 min 0 W/m 2,1 km/h (1 Bft)
21.07.2015 23:42 21,1 C 18,3 C 85 % 0 lf 1013,6 hPa 0,0 l/m 0 min 0 min 0 W/m 2,1 km/h (1 Bft)
21.07.2015 23:44 21,0 C 18,3 C 85 % 0 lf 1013,6 hPa 0,0 l/m 0 min 0 min 0 W/m 4,2 km/h (1 Bft)
21.07.2015 23:46 21,0 C 18,3 C 85 % 0 lf 1013,6 hPa 0,0 l/m 0 min 0 min 0 W/m 4,2 km/h (1 Bft)
21.07.2015 23:48 21,0 C 18,3 C 85 % 0 lf 1013,7 hPa 0,0 l/m 0 min 0 min 0 W/m 4,2 km/h (1 Bft)
21.07.2015 23:50 20,9 C 18,3 C 85 % 0 lf 1013,7 hPa 0,0 l/m 0 min 0 min 0 W/m 4,2 km/h (1 Bft)
21.07.2015 23:52 20,9 C 18,3 C 85 % 0 lf 1013,7 hPa 0,0 l/m 0 min 0 min 0 W/m 4,2 km/h (1 Bft)
21.07.2015 23:54 20,9 C 18,3 C 85 % 0 lf 1013,8 hPa 0,0 l/m 0 min 0 min 0 W/m 2,1 km/h (1 Bft)
21.07.2015 23:56 20,8 C 17,8 C 86 % 0 lf 1013,7 hPa 0,0 l/m 0 min 0 min 0 W/m 2,1 km/h (1 Bft)
21.07.2015 23:58 20,8 C 17,8 C 86 % 0 lf 1013,7 hPa 0,0 l/m 0 min 0 min 0 W/m 2,1 km/h (1 Bft)
_ Min-Zeit 04:05 02:48 12:24 06:12 04:16 - - - - 22:36
Minimum _ 19,4 C 17,8 C 61 % 0 lf 1011,3 hPa - - - - 0,0 km/h (0 Bft)
_ Max-Zeit 16:54 12:12 04:30 03:44 14:00 00:00 07:46 00:00 13:42 10:04
Maximum _ 27,2 C 28,9 C 97 % 10 lf 1014,2 hPa 0,0 l/m 2 min 0 min 1209 W/m 37,7 km/h
SW (5 Bft)
Durchschnitt _ 23,2 C 21,6 C 81 % 1 lf 1012,9 hPa #0,0 l/m #8:49 h #0 min. 328 W/m 15,3 km/h (3 Bft)
© 2015 W. Hausmann